<?xml version="1.0" encoding="UTF-8" standalone="no" ?>
<gpx xmlns="http://www.topografix.com/GPX/1/1" xmlns:xsi="http://www.w3.org/2001/XMLSchema-instance" xsi:schemaLocation="http://www.topografix.com/GPX/1/1 http://www.topografix.com/GPX/1/1/gpx.xsd" version="1.1" creator="VisuGPX - https://www.visugpx.com">
  <metadata>
    <name>Parcours VTT Aglo 2021</name>
  </metadata>
  <trk>
    <name><![CDATA[Rouge Orgnac Aiguèze]]></name>
    <extensions>
      <line xmlns="http://www.topografix.com/GPX/gpx_style/0/2">
        <color>fa0000</color>
        <width>4</width>
      </line>
    </extensions>
    <trkseg>
      <trkpt lat="44.31834" lon="4.41213">
        <ele>303</ele>
        <time>2021-07-04T13:18:55Z</time>
      </trkpt>
      <trkpt lat="44.3182" lon="4.4122">
        <ele>302</ele>
        <time>2021-07-04T13:18:58Z</time>
      </trkpt>
      <trkpt lat="44.31833" lon="4.41246">
        <ele>302</ele>
        <time>2021-07-04T13:19:04Z</time>
      </trkpt>
      <trkpt lat="44.3184" lon="4.41273">
        <ele>303</ele>
        <time>2021-07-04T13:19:09Z</time>
      </trkpt>
      <trkpt lat="44.31842" lon="4.413">
        <ele>304</ele>
        <time>2021-07-04T13:19:13Z</time>
      </trkpt>
      <trkpt lat="44.31841" lon="4.41322">
        <ele>305</ele>
        <time>2021-07-04T13:19:17Z</time>
      </trkpt>
      <trkpt lat="44.31828" lon="4.41383">
        <ele>304</ele>
        <time>2021-07-04T13:19:27Z</time>
      </trkpt>
      <trkpt lat="44.31844" lon="4.41389">
        <ele>305</ele>
        <time>2021-07-04T13:19:31Z</time>
      </trkpt>
      <trkpt lat="44.31886" lon="4.41397">
        <ele>309</ele>
        <time>2021-07-04T13:19:41Z</time>
      </trkpt>
      <trkpt lat="44.31902" lon="4.41394">
        <ele>311</ele>
        <time>2021-07-04T13:19:45Z</time>
      </trkpt>
      <trkpt lat="44.31928" lon="4.41406">
        <ele>313</ele>
        <time>2021-07-04T13:19:51Z</time>
      </trkpt>
      <trkpt lat="44.31942" lon="4.41406">
        <ele>314</ele>
        <time>2021-07-04T13:19:55Z</time>
      </trkpt>
      <trkpt lat="44.31953" lon="4.41399">
        <ele>314</ele>
        <time>2021-07-04T13:19:57Z</time>
      </trkpt>
      <trkpt lat="44.32031" lon="4.41433">
        <ele>316</ele>
        <time>2021-07-04T13:20:17Z</time>
      </trkpt>
      <trkpt lat="44.32063" lon="4.41441">
        <ele>316</ele>
        <time>2021-07-04T13:20:24Z</time>
      </trkpt>
      <trkpt lat="44.32089" lon="4.41455">
        <ele>316</ele>
        <time>2021-07-04T13:20:31Z</time>
      </trkpt>
      <trkpt lat="44.32104" lon="4.41471">
        <ele>316</ele>
        <time>2021-07-04T13:20:35Z</time>
      </trkpt>
      <trkpt lat="44.32135" lon="4.41467">
        <ele>316</ele>
        <time>2021-07-04T13:20:42Z</time>
      </trkpt>
      <trkpt lat="44.32151" lon="4.41511">
        <ele>315</ele>
        <time>2021-07-04T13:20:51Z</time>
      </trkpt>
      <trkpt lat="44.32105" lon="4.41571">
        <ele>313</ele>
        <time>2021-07-04T13:21:05Z</time>
      </trkpt>
      <trkpt lat="44.3208" lon="4.4162">
        <ele>312</ele>
        <time>2021-07-04T13:21:15Z</time>
      </trkpt>
      <trkpt lat="44.32031" lon="4.41743">
        <ele>307</ele>
        <time>2021-07-04T13:21:39Z</time>
      </trkpt>
      <trkpt lat="44.32015" lon="4.41765">
        <ele>305</ele>
        <time>2021-07-04T13:21:44Z</time>
      </trkpt>
      <trkpt lat="44.3199" lon="4.41786">
        <ele>304</ele>
        <time>2021-07-04T13:21:51Z</time>
      </trkpt>
      <trkpt lat="44.31912" lon="4.41804">
        <ele>305</ele>
        <time>2021-07-04T13:22:09Z</time>
      </trkpt>
      <trkpt lat="44.31823" lon="4.41807">
        <ele>302</ele>
        <time>2021-07-04T13:22:30Z</time>
      </trkpt>
      <trkpt lat="44.31799" lon="4.41811">
        <ele>302</ele>
        <time>2021-07-04T13:22:36Z</time>
      </trkpt>
      <trkpt lat="44.318" lon="4.41822">
        <ele>303</ele>
        <time>2021-07-04T13:22:38Z</time>
      </trkpt>
      <trkpt lat="44.31799" lon="4.41811">
        <ele>302</ele>
        <time>2021-07-04T13:22:39Z</time>
      </trkpt>
      <trkpt lat="44.31761" lon="4.4182">
        <ele>301</ele>
        <time>2021-07-04T13:22:48Z</time>
      </trkpt>
      <trkpt lat="44.31738" lon="4.41829">
        <ele>301</ele>
        <time>2021-07-04T13:22:54Z</time>
      </trkpt>
      <trkpt lat="44.31694" lon="4.41877">
        <ele>303</ele>
        <time>2021-07-04T13:23:07Z</time>
      </trkpt>
      <trkpt lat="44.31637" lon="4.41896">
        <ele>303</ele>
        <time>2021-07-04T13:23:21Z</time>
      </trkpt>
      <trkpt lat="44.31631" lon="4.41901">
        <ele>303</ele>
        <time>2021-07-04T13:23:22Z</time>
      </trkpt>
      <trkpt lat="44.31636" lon="4.41905">
        <ele>303</ele>
        <time>2021-07-04T13:23:24Z</time>
      </trkpt>
      <trkpt lat="44.31639" lon="4.4192">
        <ele>304</ele>
        <time>2021-07-04T13:23:26Z</time>
      </trkpt>
      <trkpt lat="44.31662" lon="4.41942">
        <ele>306</ele>
        <time>2021-07-04T13:23:33Z</time>
      </trkpt>
      <trkpt lat="44.31665" lon="4.41952">
        <ele>307</ele>
        <time>2021-07-04T13:23:35Z</time>
      </trkpt>
      <trkpt lat="44.31657" lon="4.41968">
        <ele>307</ele>
        <time>2021-07-04T13:23:38Z</time>
      </trkpt>
      <trkpt lat="44.31654" lon="4.42001">
        <ele>308</ele>
        <time>2021-07-04T13:23:43Z</time>
      </trkpt>
      <trkpt lat="44.31645" lon="4.42013">
        <ele>307</ele>
        <time>2021-07-04T13:23:46Z</time>
      </trkpt>
      <trkpt lat="44.3163" lon="4.42012">
        <ele>307</ele>
        <time>2021-07-04T13:23:50Z</time>
      </trkpt>
      <trkpt lat="44.31612" lon="4.42027">
        <ele>305</ele>
        <time>2021-07-04T13:23:55Z</time>
      </trkpt>
      <trkpt lat="44.3154" lon="4.42097">
        <ele>300</ele>
        <time>2021-07-04T13:24:15Z</time>
      </trkpt>
      <trkpt lat="44.31469" lon="4.42167">
        <ele>294</ele>
        <time>2021-07-04T13:24:36Z</time>
      </trkpt>
      <trkpt lat="44.3146" lon="4.42191">
        <ele>295</ele>
        <time>2021-07-04T13:24:40Z</time>
      </trkpt>
      <trkpt lat="44.31438" lon="4.42212">
        <ele>296</ele>
        <time>2021-07-04T13:24:46Z</time>
      </trkpt>
      <trkpt lat="44.31433" lon="4.42237">
        <ele>297</ele>
        <time>2021-07-04T13:24:51Z</time>
      </trkpt>
      <trkpt lat="44.31481" lon="4.42353">
        <ele>303</ele>
        <time>2021-07-04T13:25:13Z</time>
      </trkpt>
      <trkpt lat="44.31495" lon="4.42371">
        <ele>303</ele>
        <time>2021-07-04T13:25:17Z</time>
      </trkpt>
      <trkpt lat="44.31504" lon="4.4239">
        <ele>303</ele>
        <time>2021-07-04T13:25:21Z</time>
      </trkpt>
      <trkpt lat="44.31501" lon="4.42424">
        <ele>302</ele>
        <time>2021-07-04T13:25:27Z</time>
      </trkpt>
      <trkpt lat="44.31491" lon="4.4243">
        <ele>302</ele>
        <time>2021-07-04T13:25:30Z</time>
      </trkpt>
      <trkpt lat="44.31484" lon="4.4247">
        <ele>304</ele>
        <time>2021-07-04T13:25:36Z</time>
      </trkpt>
      <trkpt lat="44.31484" lon="4.42484">
        <ele>305</ele>
        <time>2021-07-04T13:25:39Z</time>
      </trkpt>
      <trkpt lat="44.3146" lon="4.42477">
        <ele>304</ele>
        <time>2021-07-04T13:25:45Z</time>
      </trkpt>
      <trkpt lat="44.31455" lon="4.42492">
        <ele>304</ele>
        <time>2021-07-04T13:25:47Z</time>
      </trkpt>
      <trkpt lat="44.31451" lon="4.42519">
        <ele>305</ele>
        <time>2021-07-04T13:25:52Z</time>
      </trkpt>
      <trkpt lat="44.31471" lon="4.42526">
        <ele>306</ele>
        <time>2021-07-04T13:25:57Z</time>
      </trkpt>
      <trkpt lat="44.31462" lon="4.42555">
        <ele>307</ele>
        <time>2021-07-04T13:26:02Z</time>
      </trkpt>
      <trkpt lat="44.31431" lon="4.42626">
        <ele>308</ele>
        <time>2021-07-04T13:26:16Z</time>
      </trkpt>
      <trkpt lat="44.3142" lon="4.42677">
        <ele>308</ele>
        <time>2021-07-04T13:26:25Z</time>
      </trkpt>
      <trkpt lat="44.31415" lon="4.42733">
        <ele>308</ele>
        <time>2021-07-04T13:26:34Z</time>
      </trkpt>
      <trkpt lat="44.31408" lon="4.42755">
        <ele>308</ele>
        <time>2021-07-04T13:26:38Z</time>
      </trkpt>
      <trkpt lat="44.31405" lon="4.42775">
        <ele>308</ele>
        <time>2021-07-04T13:26:42Z</time>
      </trkpt>
      <trkpt lat="44.31399" lon="4.42791">
        <ele>308</ele>
        <time>2021-07-04T13:26:45Z</time>
      </trkpt>
      <trkpt lat="44.31398" lon="4.42804">
        <ele>308</ele>
        <time>2021-07-04T13:26:47Z</time>
      </trkpt>
      <trkpt lat="44.31403" lon="4.42828">
        <ele>309</ele>
        <time>2021-07-04T13:26:51Z</time>
      </trkpt>
      <trkpt lat="44.31385" lon="4.42869">
        <ele>308</ele>
        <time>2021-07-04T13:26:59Z</time>
      </trkpt>
      <trkpt lat="44.31336" lon="4.43111">
        <ele>310</ele>
        <time>2021-07-04T13:27:41Z</time>
      </trkpt>
      <trkpt lat="44.31266" lon="4.43156">
        <ele>308</ele>
        <time>2021-07-04T13:27:59Z</time>
      </trkpt>
      <trkpt lat="44.31281" lon="4.43173">
        <ele>308</ele>
        <time>2021-07-04T13:28:04Z</time>
      </trkpt>
      <trkpt lat="44.31316" lon="4.432">
        <ele>308</ele>
        <time>2021-07-04T13:28:13Z</time>
      </trkpt>
      <trkpt lat="44.31337" lon="4.43198">
        <ele>309</ele>
        <time>2021-07-04T13:28:18Z</time>
      </trkpt>
      <trkpt lat="44.31372" lon="4.43186">
        <ele>310</ele>
        <time>2021-07-04T13:28:26Z</time>
      </trkpt>
      <trkpt lat="44.31429" lon="4.43154">
        <ele>311</ele>
        <time>2021-07-04T13:28:41Z</time>
      </trkpt>
      <trkpt lat="44.31638" lon="4.43109">
        <ele>319</ele>
        <time>2021-07-04T13:29:30Z</time>
      </trkpt>
      <trkpt lat="44.31651" lon="4.43092">
        <ele>320</ele>
        <time>2021-07-04T13:29:34Z</time>
      </trkpt>
      <trkpt lat="44.31722" lon="4.43025">
        <ele>325</ele>
        <time>2021-07-04T13:29:54Z</time>
      </trkpt>
      <trkpt lat="44.3176" lon="4.42997">
        <ele>328</ele>
        <time>2021-07-04T13:30:04Z</time>
      </trkpt>
      <trkpt lat="44.31777" lon="4.42991">
        <ele>329</ele>
        <time>2021-07-04T13:30:08Z</time>
      </trkpt>
      <trkpt lat="44.31911" lon="4.42989">
        <ele>335</ele>
        <time>2021-07-04T13:30:40Z</time>
      </trkpt>
      <trkpt lat="44.31957" lon="4.43007">
        <ele>340</ele>
        <time>2021-07-04T13:30:51Z</time>
      </trkpt>
      <trkpt lat="44.32035" lon="4.43081">
        <ele>349</ele>
        <time>2021-07-04T13:31:13Z</time>
      </trkpt>
      <trkpt lat="44.32052" lon="4.43086">
        <ele>350</ele>
        <time>2021-07-04T13:31:17Z</time>
      </trkpt>
      <trkpt lat="44.32094" lon="4.43089">
        <ele>352</ele>
        <time>2021-07-04T13:31:27Z</time>
      </trkpt>
      <trkpt lat="44.3211" lon="4.43078">
        <ele>353</ele>
        <time>2021-07-04T13:31:31Z</time>
      </trkpt>
      <trkpt lat="44.32131" lon="4.43025">
        <ele>356</ele>
        <time>2021-07-04T13:31:41Z</time>
      </trkpt>
      <trkpt lat="44.32196" lon="4.42965">
        <ele>361</ele>
        <time>2021-07-04T13:31:59Z</time>
      </trkpt>
      <trkpt lat="44.3222" lon="4.42952">
        <ele>363</ele>
        <time>2021-07-04T13:32:05Z</time>
      </trkpt>
      <trkpt lat="44.3225" lon="4.42951">
        <ele>365</ele>
        <time>2021-07-04T13:32:12Z</time>
      </trkpt>
      <trkpt lat="44.323" lon="4.42909">
        <ele>370</ele>
        <time>2021-07-04T13:32:26Z</time>
      </trkpt>
      <trkpt lat="44.32349" lon="4.42876">
        <ele>373</ele>
        <time>2021-07-04T13:32:38Z</time>
      </trkpt>
      <trkpt lat="44.32435" lon="4.42863">
        <ele>380</ele>
        <time>2021-07-04T13:32:59Z</time>
      </trkpt>
      <trkpt lat="44.32488" lon="4.429">
        <ele>383</ele>
        <time>2021-07-04T13:33:12Z</time>
      </trkpt>
      <trkpt lat="44.32557" lon="4.42912">
        <ele>385</ele>
        <time>2021-07-04T13:33:29Z</time>
      </trkpt>
      <trkpt lat="44.32606" lon="4.42934">
        <ele>385</ele>
        <time>2021-07-04T13:33:41Z</time>
      </trkpt>
      <trkpt lat="44.32613" lon="4.42962">
        <ele>386</ele>
        <time>2021-07-04T13:33:46Z</time>
      </trkpt>
      <trkpt lat="44.32633" lon="4.4308">
        <ele>386</ele>
        <time>2021-07-04T13:34:06Z</time>
      </trkpt>
      <trkpt lat="44.32644" lon="4.43122">
        <ele>386</ele>
        <time>2021-07-04T13:34:13Z</time>
      </trkpt>
      <trkpt lat="44.32639" lon="4.43163">
        <ele>386</ele>
        <time>2021-07-04T13:34:20Z</time>
      </trkpt>
      <trkpt lat="44.32621" lon="4.43213">
        <ele>387</ele>
        <time>2021-07-04T13:34:30Z</time>
      </trkpt>
      <trkpt lat="44.32608" lon="4.43265">
        <ele>387</ele>
        <time>2021-07-04T13:34:39Z</time>
      </trkpt>
      <trkpt lat="44.3261" lon="4.43282">
        <ele>387</ele>
        <time>2021-07-04T13:34:42Z</time>
      </trkpt>
      <trkpt lat="44.32591" lon="4.43307">
        <ele>386</ele>
        <time>2021-07-04T13:34:48Z</time>
      </trkpt>
      <trkpt lat="44.32588" lon="4.43327">
        <ele>386</ele>
        <time>2021-07-04T13:34:51Z</time>
      </trkpt>
      <trkpt lat="44.32589" lon="4.43381">
        <ele>385</ele>
        <time>2021-07-04T13:35:00Z</time>
      </trkpt>
      <trkpt lat="44.32573" lon="4.43414">
        <ele>383</ele>
        <time>2021-07-04T13:35:07Z</time>
      </trkpt>
      <trkpt lat="44.32602" lon="4.4348">
        <ele>383</ele>
        <time>2021-07-04T13:35:20Z</time>
      </trkpt>
      <trkpt lat="44.32609" lon="4.43527">
        <ele>383</ele>
        <time>2021-07-04T13:35:28Z</time>
      </trkpt>
      <trkpt lat="44.32643" lon="4.43582">
        <ele>384</ele>
        <time>2021-07-04T13:35:40Z</time>
      </trkpt>
      <trkpt lat="44.32646" lon="4.43645">
        <ele>386</ele>
        <time>2021-07-04T13:35:51Z</time>
      </trkpt>
      <trkpt lat="44.32608" lon="4.44084">
        <ele>371</ele>
        <time>2021-07-04T13:37:05Z</time>
      </trkpt>
      <trkpt lat="44.32602" lon="4.44177">
        <ele>368</ele>
        <time>2021-07-04T13:37:20Z</time>
      </trkpt>
      <trkpt lat="44.32575" lon="4.44471">
        <ele>369</ele>
        <time>2021-07-04T13:38:10Z</time>
      </trkpt>
      <trkpt lat="44.32651" lon="4.44502">
        <ele>372</ele>
        <time>2021-07-04T13:38:28Z</time>
      </trkpt>
      <trkpt lat="44.32678" lon="4.44494">
        <ele>373</ele>
        <time>2021-07-04T13:38:35Z</time>
      </trkpt>
      <trkpt lat="44.32746" lon="4.4452">
        <ele>375</ele>
        <time>2021-07-04T13:38:51Z</time>
      </trkpt>
      <trkpt lat="44.32779" lon="4.44541">
        <ele>376</ele>
        <time>2021-07-04T13:39:00Z</time>
      </trkpt>
      <trkpt lat="44.32775" lon="4.44589">
        <ele>376</ele>
        <time>2021-07-04T13:39:08Z</time>
      </trkpt>
      <trkpt lat="44.328" lon="4.44606">
        <ele>377</ele>
        <time>2021-07-04T13:39:14Z</time>
      </trkpt>
      <trkpt lat="44.32836" lon="4.44606">
        <ele>378</ele>
        <time>2021-07-04T13:39:22Z</time>
      </trkpt>
      <trkpt lat="44.32871" lon="4.44609">
        <ele>379</ele>
        <time>2021-07-04T13:39:31Z</time>
      </trkpt>
      <trkpt lat="44.32916" lon="4.44594">
        <ele>379</ele>
        <time>2021-07-04T13:39:41Z</time>
      </trkpt>
      <trkpt lat="44.32944" lon="4.44576">
        <ele>379</ele>
        <time>2021-07-04T13:39:49Z</time>
      </trkpt>
      <trkpt lat="44.32975" lon="4.44565">
        <ele>379</ele>
        <time>2021-07-04T13:39:56Z</time>
      </trkpt>
      <trkpt lat="44.33016" lon="4.44605">
        <ele>378</ele>
        <time>2021-07-04T13:40:08Z</time>
      </trkpt>
      <trkpt lat="44.33026" lon="4.44625">
        <ele>377</ele>
        <time>2021-07-04T13:40:12Z</time>
      </trkpt>
      <trkpt lat="44.3305" lon="4.44627">
        <ele>376</ele>
        <time>2021-07-04T13:40:18Z</time>
      </trkpt>
      <trkpt lat="44.33087" lon="4.44621">
        <ele>376</ele>
        <time>2021-07-04T13:40:26Z</time>
      </trkpt>
      <trkpt lat="44.33122" lon="4.44619">
        <ele>375</ele>
        <time>2021-07-04T13:40:34Z</time>
      </trkpt>
      <trkpt lat="44.33177" lon="4.44593">
        <ele>375</ele>
        <time>2021-07-04T13:40:48Z</time>
      </trkpt>
      <trkpt lat="44.33224" lon="4.44605">
        <ele>376</ele>
        <time>2021-07-04T13:40:59Z</time>
      </trkpt>
      <trkpt lat="44.33244" lon="4.44673">
        <ele>376</ele>
        <time>2021-07-04T13:41:11Z</time>
      </trkpt>
      <trkpt lat="44.33283" lon="4.4475">
        <ele>379</ele>
        <time>2021-07-04T13:41:27Z</time>
      </trkpt>
      <trkpt lat="44.33307" lon="4.44742">
        <ele>380</ele>
        <time>2021-07-04T13:41:33Z</time>
      </trkpt>
      <trkpt lat="44.33332" lon="4.44746">
        <ele>382</ele>
        <time>2021-07-04T13:41:39Z</time>
      </trkpt>
      <trkpt lat="44.3336" lon="4.44754">
        <ele>384</ele>
        <time>2021-07-04T13:41:45Z</time>
      </trkpt>
      <trkpt lat="44.3337" lon="4.4478">
        <ele>384</ele>
        <time>2021-07-04T13:41:50Z</time>
      </trkpt>
      <trkpt lat="44.33374" lon="4.44831">
        <ele>385</ele>
        <time>2021-07-04T13:41:59Z</time>
      </trkpt>
      <trkpt lat="44.33377" lon="4.44928">
        <ele>386</ele>
        <time>2021-07-04T13:42:15Z</time>
      </trkpt>
      <trkpt lat="44.33392" lon="4.44971">
        <ele>388</ele>
        <time>2021-07-04T13:42:23Z</time>
      </trkpt>
      <trkpt lat="44.33431" lon="4.45016">
        <ele>390</ele>
        <time>2021-07-04T13:42:35Z</time>
      </trkpt>
      <trkpt lat="44.33424" lon="4.45032">
        <ele>390</ele>
        <time>2021-07-04T13:42:38Z</time>
      </trkpt>
      <trkpt lat="44.33411" lon="4.45087">
        <ele>391</ele>
        <time>2021-07-04T13:42:48Z</time>
      </trkpt>
      <trkpt lat="44.33403" lon="4.45166">
        <ele>393</ele>
        <time>2021-07-04T13:43:01Z</time>
      </trkpt>
      <trkpt lat="44.33393" lon="4.45223">
        <ele>394</ele>
        <time>2021-07-04T13:43:11Z</time>
      </trkpt>
      <trkpt lat="44.33385" lon="4.45233">
        <ele>394</ele>
        <time>2021-07-04T13:43:13Z</time>
      </trkpt>
      <trkpt lat="44.33373" lon="4.45296">
        <ele>395</ele>
        <time>2021-07-04T13:43:24Z</time>
      </trkpt>
      <trkpt lat="44.33318" lon="4.45463">
        <ele>390</ele>
        <time>2021-07-04T13:43:55Z</time>
      </trkpt>
      <trkpt lat="44.33287" lon="4.455">
        <ele>390</ele>
        <time>2021-07-04T13:44:05Z</time>
      </trkpt>
      <trkpt lat="44.33224" lon="4.45565">
        <ele>393</ele>
        <time>2021-07-04T13:44:23Z</time>
      </trkpt>
      <trkpt lat="44.33207" lon="4.456">
        <ele>393</ele>
        <time>2021-07-04T13:44:30Z</time>
      </trkpt>
      <trkpt lat="44.33176" lon="4.45646">
        <ele>393</ele>
        <time>2021-07-04T13:44:40Z</time>
      </trkpt>
      <trkpt lat="44.33102" lon="4.45731">
        <ele>394</ele>
        <time>2021-07-04T13:45:03Z</time>
      </trkpt>
      <trkpt lat="44.33012" lon="4.45808">
        <ele>396</ele>
        <time>2021-07-04T13:45:27Z</time>
      </trkpt>
      <trkpt lat="44.3294" lon="4.45836">
        <ele>397</ele>
        <time>2021-07-04T13:45:45Z</time>
      </trkpt>
      <trkpt lat="44.32921" lon="4.45846">
        <ele>398</ele>
        <time>2021-07-04T13:45:50Z</time>
      </trkpt>
      <trkpt lat="44.32863" lon="4.45888">
        <ele>401</ele>
        <time>2021-07-04T13:46:05Z</time>
      </trkpt>
      <trkpt lat="44.3284" lon="4.45915">
        <ele>403</ele>
        <time>2021-07-04T13:46:12Z</time>
      </trkpt>
      <trkpt lat="44.32822" lon="4.45951">
        <ele>403</ele>
        <time>2021-07-04T13:46:19Z</time>
      </trkpt>
      <trkpt lat="44.32787" lon="4.4606">
        <ele>403</ele>
        <time>2021-07-04T13:46:39Z</time>
      </trkpt>
      <trkpt lat="44.32776" lon="4.46169">
        <ele>401</ele>
        <time>2021-07-04T13:46:58Z</time>
      </trkpt>
      <trkpt lat="44.32777" lon="4.46197">
        <ele>402</ele>
        <time>2021-07-04T13:47:02Z</time>
      </trkpt>
      <trkpt lat="44.3277" lon="4.46247">
        <ele>402</ele>
        <time>2021-07-04T13:47:11Z</time>
      </trkpt>
      <trkpt lat="44.3277" lon="4.46308">
        <ele>402</ele>
        <time>2021-07-04T13:47:21Z</time>
      </trkpt>
      <trkpt lat="44.32774" lon="4.46352">
        <ele>402</ele>
        <time>2021-07-04T13:47:28Z</time>
      </trkpt>
      <trkpt lat="44.3277" lon="4.46434">
        <ele>400</ele>
        <time>2021-07-04T13:47:42Z</time>
      </trkpt>
      <trkpt lat="44.32774" lon="4.46471">
        <ele>399</ele>
        <time>2021-07-04T13:47:48Z</time>
      </trkpt>
      <trkpt lat="44.32781" lon="4.46512">
        <ele>398</ele>
        <time>2021-07-04T13:47:55Z</time>
      </trkpt>
      <trkpt lat="44.32802" lon="4.46585">
        <ele>395</ele>
        <time>2021-07-04T13:48:09Z</time>
      </trkpt>
      <trkpt lat="44.32805" lon="4.46608">
        <ele>394</ele>
        <time>2021-07-04T13:48:12Z</time>
      </trkpt>
      <trkpt lat="44.32814" lon="4.46627">
        <ele>393</ele>
        <time>2021-07-04T13:48:16Z</time>
      </trkpt>
      <trkpt lat="44.32824" lon="4.46696">
        <ele>390</ele>
        <time>2021-07-04T13:48:28Z</time>
      </trkpt>
      <trkpt lat="44.32835" lon="4.46726">
        <ele>390</ele>
        <time>2021-07-04T13:48:34Z</time>
      </trkpt>
      <trkpt lat="44.32834" lon="4.46759">
        <ele>389</ele>
        <time>2021-07-04T13:48:39Z</time>
      </trkpt>
      <trkpt lat="44.32823" lon="4.46807">
        <ele>388</ele>
        <time>2021-07-04T13:48:48Z</time>
      </trkpt>
      <trkpt lat="44.32818" lon="4.46845">
        <ele>388</ele>
        <time>2021-07-04T13:48:54Z</time>
      </trkpt>
      <trkpt lat="44.32822" lon="4.46924">
        <ele>389</ele>
        <time>2021-07-04T13:49:07Z</time>
      </trkpt>
      <trkpt lat="44.3282" lon="4.47028">
        <ele>391</ele>
        <time>2021-07-04T13:49:25Z</time>
      </trkpt>
      <trkpt lat="44.32815" lon="4.47081">
        <ele>391</ele>
        <time>2021-07-04T13:49:34Z</time>
      </trkpt>
      <trkpt lat="44.328" lon="4.47162">
        <ele>390</ele>
        <time>2021-07-04T13:49:48Z</time>
      </trkpt>
      <trkpt lat="44.32799" lon="4.47186">
        <ele>390</ele>
        <time>2021-07-04T13:49:52Z</time>
      </trkpt>
      <trkpt lat="44.32805" lon="4.47267">
        <ele>391</ele>
        <time>2021-07-04T13:50:05Z</time>
      </trkpt>
      <trkpt lat="44.32803" lon="4.47277">
        <ele>392</ele>
        <time>2021-07-04T13:50:07Z</time>
      </trkpt>
      <trkpt lat="44.32779" lon="4.47306">
        <ele>392</ele>
        <time>2021-07-04T13:50:14Z</time>
      </trkpt>
      <trkpt lat="44.32727" lon="4.47361">
        <ele>392</ele>
        <time>2021-07-04T13:50:30Z</time>
      </trkpt>
      <trkpt lat="44.32709" lon="4.47386">
        <ele>393</ele>
        <time>2021-07-04T13:50:36Z</time>
      </trkpt>
      <trkpt lat="44.32673" lon="4.47455">
        <ele>393</ele>
        <time>2021-07-04T13:50:50Z</time>
      </trkpt>
      <trkpt lat="44.32607" lon="4.47607">
        <ele>391</ele>
        <time>2021-07-04T13:51:19Z</time>
      </trkpt>
      <trkpt lat="44.32595" lon="4.47643">
        <ele>390</ele>
        <time>2021-07-04T13:51:26Z</time>
      </trkpt>
      <trkpt lat="44.32586" lon="4.47658">
        <ele>390</ele>
        <time>2021-07-04T13:51:29Z</time>
      </trkpt>
      <trkpt lat="44.32572" lon="4.47673">
        <ele>390</ele>
        <time>2021-07-04T13:51:34Z</time>
      </trkpt>
      <trkpt lat="44.32562" lon="4.47695">
        <ele>390</ele>
        <time>2021-07-04T13:51:38Z</time>
      </trkpt>
      <trkpt lat="44.32558" lon="4.47711">
        <ele>390</ele>
        <time>2021-07-04T13:51:41Z</time>
      </trkpt>
      <trkpt lat="44.32548" lon="4.47796">
        <ele>391</ele>
        <time>2021-07-04T13:51:55Z</time>
      </trkpt>
      <trkpt lat="44.32536" lon="4.47872">
        <ele>389</ele>
        <time>2021-07-04T13:52:08Z</time>
      </trkpt>
      <trkpt lat="44.32529" lon="4.47902">
        <ele>387</ele>
        <time>2021-07-04T13:52:13Z</time>
      </trkpt>
      <trkpt lat="44.32523" lon="4.47917">
        <ele>386</ele>
        <time>2021-07-04T13:52:16Z</time>
      </trkpt>
      <trkpt lat="44.32492" lon="4.47967">
        <ele>382</ele>
        <time>2021-07-04T13:52:27Z</time>
      </trkpt>
      <trkpt lat="44.32459" lon="4.48013">
        <ele>379</ele>
        <time>2021-07-04T13:52:38Z</time>
      </trkpt>
      <trkpt lat="44.32436" lon="4.48058">
        <ele>376</ele>
        <time>2021-07-04T13:52:47Z</time>
      </trkpt>
      <trkpt lat="44.32412" lon="4.48095">
        <ele>373</ele>
        <time>2021-07-04T13:52:56Z</time>
      </trkpt>
      <trkpt lat="44.3239" lon="4.48122">
        <ele>371</ele>
        <time>2021-07-04T13:53:03Z</time>
      </trkpt>
      <trkpt lat="44.32361" lon="4.48146">
        <ele>368</ele>
        <time>2021-07-04T13:53:10Z</time>
      </trkpt>
      <trkpt lat="44.32342" lon="4.48168">
        <ele>367</ele>
        <time>2021-07-04T13:53:16Z</time>
      </trkpt>
      <trkpt lat="44.32319" lon="4.48224">
        <ele>365</ele>
        <time>2021-07-04T13:53:27Z</time>
      </trkpt>
      <trkpt lat="44.32306" lon="4.48292">
        <ele>363</ele>
        <time>2021-07-04T13:53:39Z</time>
      </trkpt>
      <trkpt lat="44.32298" lon="4.48313">
        <ele>362</ele>
        <time>2021-07-04T13:53:43Z</time>
      </trkpt>
      <trkpt lat="44.32285" lon="4.4833">
        <ele>361</ele>
        <time>2021-07-04T13:53:47Z</time>
      </trkpt>
      <trkpt lat="44.32249" lon="4.48352">
        <ele>359</ele>
        <time>2021-07-04T13:53:56Z</time>
      </trkpt>
      <trkpt lat="44.32241" lon="4.48361">
        <ele>359</ele>
        <time>2021-07-04T13:53:58Z</time>
      </trkpt>
      <trkpt lat="44.32236" lon="4.48375">
        <ele>359</ele>
        <time>2021-07-04T13:54:01Z</time>
      </trkpt>
      <trkpt lat="44.3222" lon="4.48449">
        <ele>360</ele>
        <time>2021-07-04T13:54:14Z</time>
      </trkpt>
      <trkpt lat="44.32193" lon="4.48514">
        <ele>360</ele>
        <time>2021-07-04T13:54:27Z</time>
      </trkpt>
      <trkpt lat="44.3218" lon="4.48538">
        <ele>360</ele>
        <time>2021-07-04T13:54:32Z</time>
      </trkpt>
      <trkpt lat="44.32164" lon="4.48555">
        <ele>360</ele>
        <time>2021-07-04T13:54:36Z</time>
      </trkpt>
      <trkpt lat="44.32157" lon="4.48569">
        <ele>360</ele>
        <time>2021-07-04T13:54:39Z</time>
      </trkpt>
      <trkpt lat="44.32119" lon="4.48596">
        <ele>360</ele>
        <time>2021-07-04T13:54:49Z</time>
      </trkpt>
      <trkpt lat="44.32119" lon="4.48628">
        <ele>359</ele>
        <time>2021-07-04T13:54:54Z</time>
      </trkpt>
      <trkpt lat="44.32089" lon="4.48721">
        <ele>355</ele>
        <time>2021-07-04T13:55:11Z</time>
      </trkpt>
      <trkpt lat="44.32058" lon="4.48774">
        <ele>355</ele>
        <time>2021-07-04T13:55:23Z</time>
      </trkpt>
      <trkpt lat="44.32015" lon="4.4887">
        <ele>357</ele>
        <time>2021-07-04T13:55:42Z</time>
      </trkpt>
      <trkpt lat="44.32018" lon="4.48907">
        <ele>358</ele>
        <time>2021-07-04T13:55:48Z</time>
      </trkpt>
      <trkpt lat="44.32032" lon="4.4897">
        <ele>359</ele>
        <time>2021-07-04T13:55:59Z</time>
      </trkpt>
      <trkpt lat="44.32032" lon="4.48989">
        <ele>359</ele>
        <time>2021-07-04T13:56:02Z</time>
      </trkpt>
      <trkpt lat="44.31982" lon="4.49107">
        <ele>360</ele>
        <time>2021-07-04T13:56:25Z</time>
      </trkpt>
      <trkpt lat="44.3197" lon="4.4911">
        <ele>360</ele>
        <time>2021-07-04T13:56:28Z</time>
      </trkpt>
      <trkpt lat="44.31963" lon="4.49145">
        <ele>358</ele>
        <time>2021-07-04T13:56:34Z</time>
      </trkpt>
      <trkpt lat="44.31949" lon="4.4919">
        <ele>357</ele>
        <time>2021-07-04T13:56:42Z</time>
      </trkpt>
      <trkpt lat="44.31948" lon="4.49244">
        <ele>355</ele>
        <time>2021-07-04T13:56:51Z</time>
      </trkpt>
      <trkpt lat="44.31935" lon="4.49308">
        <ele>352</ele>
        <time>2021-07-04T13:57:02Z</time>
      </trkpt>
      <trkpt lat="44.31932" lon="4.4934">
        <ele>351</ele>
        <time>2021-07-04T13:57:08Z</time>
      </trkpt>
      <trkpt lat="44.31933" lon="4.49374">
        <ele>351</ele>
        <time>2021-07-04T13:57:14Z</time>
      </trkpt>
      <trkpt lat="44.31941" lon="4.49417">
        <ele>349</ele>
        <time>2021-07-04T13:57:21Z</time>
      </trkpt>
      <trkpt lat="44.31993" lon="4.4955">
        <ele>346</ele>
        <time>2021-07-04T13:57:46Z</time>
      </trkpt>
      <trkpt lat="44.31988" lon="4.49635">
        <ele>345</ele>
        <time>2021-07-04T13:58:01Z</time>
      </trkpt>
      <trkpt lat="44.31984" lon="4.49645">
        <ele>345</ele>
        <time>2021-07-04T13:58:02Z</time>
      </trkpt>
      <trkpt lat="44.31979" lon="4.49641">
        <ele>345</ele>
        <time>2021-07-04T13:58:04Z</time>
      </trkpt>
      <trkpt lat="44.31984" lon="4.49645">
        <ele>345</ele>
        <time>2021-07-04T13:58:05Z</time>
      </trkpt>
      <trkpt lat="44.31975" lon="4.49671">
        <ele>343</ele>
        <time>2021-07-04T13:58:10Z</time>
      </trkpt>
      <trkpt lat="44.31999" lon="4.49711">
        <ele>342</ele>
        <time>2021-07-04T13:58:19Z</time>
      </trkpt>
      <trkpt lat="44.3201" lon="4.49718">
        <ele>341</ele>
        <time>2021-07-04T13:58:21Z</time>
      </trkpt>
      <trkpt lat="44.32047" lon="4.49731">
        <ele>339</ele>
        <time>2021-07-04T13:58:30Z</time>
      </trkpt>
      <trkpt lat="44.32071" lon="4.49754">
        <ele>338</ele>
        <time>2021-07-04T13:58:37Z</time>
      </trkpt>
      <trkpt lat="44.32106" lon="4.49821">
        <ele>333</ele>
        <time>2021-07-04T13:58:51Z</time>
      </trkpt>
      <trkpt lat="44.32125" lon="4.49851">
        <ele>333</ele>
        <time>2021-07-04T13:58:58Z</time>
      </trkpt>
      <trkpt lat="44.3211" lon="4.49877">
        <ele>333</ele>
        <time>2021-07-04T13:59:03Z</time>
      </trkpt>
      <trkpt lat="44.3209" lon="4.49899">
        <ele>334</ele>
        <time>2021-07-04T13:59:09Z</time>
      </trkpt>
      <trkpt lat="44.32052" lon="4.4992">
        <ele>332</ele>
        <time>2021-07-04T13:59:19Z</time>
      </trkpt>
      <trkpt lat="44.31976" lon="4.49933">
        <ele>330</ele>
        <time>2021-07-04T13:59:37Z</time>
      </trkpt>
      <trkpt lat="44.31942" lon="4.49946">
        <ele>329</ele>
        <time>2021-07-04T13:59:45Z</time>
      </trkpt>
      <trkpt lat="44.31899" lon="4.49956">
        <ele>328</ele>
        <time>2021-07-04T13:59:55Z</time>
      </trkpt>
      <trkpt lat="44.31853" lon="4.49949">
        <ele>324</ele>
        <time>2021-07-04T14:00:06Z</time>
      </trkpt>
      <trkpt lat="44.31838" lon="4.49943">
        <ele>323</ele>
        <time>2021-07-04T14:00:10Z</time>
      </trkpt>
      <trkpt lat="44.31807" lon="4.49941">
        <ele>320</ele>
        <time>2021-07-04T14:00:17Z</time>
      </trkpt>
      <trkpt lat="44.31775" lon="4.49947">
        <ele>319</ele>
        <time>2021-07-04T14:00:24Z</time>
      </trkpt>
      <trkpt lat="44.31727" lon="4.49974">
        <ele>318</ele>
        <time>2021-07-04T14:00:36Z</time>
      </trkpt>
      <trkpt lat="44.31712" lon="4.49984">
        <ele>318</ele>
        <time>2021-07-04T14:00:40Z</time>
      </trkpt>
      <trkpt lat="44.31705" lon="4.49992">
        <ele>318</ele>
        <time>2021-07-04T14:00:42Z</time>
      </trkpt>
      <trkpt lat="44.31697" lon="4.50011">
        <ele>319</ele>
        <time>2021-07-04T14:00:46Z</time>
      </trkpt>
      <trkpt lat="44.31693" lon="4.50064">
        <ele>323</ele>
        <time>2021-07-04T14:00:55Z</time>
      </trkpt>
      <trkpt lat="44.31687" lon="4.50071">
        <ele>323</ele>
        <time>2021-07-04T14:00:57Z</time>
      </trkpt>
      <trkpt lat="44.3168" lon="4.5007">
        <ele>322</ele>
        <time>2021-07-04T14:00:58Z</time>
      </trkpt>
      <trkpt lat="44.31638" lon="4.50046">
        <ele>316</ele>
        <time>2021-07-04T14:01:09Z</time>
      </trkpt>
      <trkpt lat="44.31621" lon="4.50045">
        <ele>314</ele>
        <time>2021-07-04T14:01:13Z</time>
      </trkpt>
      <trkpt lat="44.31577" lon="4.50069">
        <ele>314</ele>
        <time>2021-07-04T14:01:24Z</time>
      </trkpt>
      <trkpt lat="44.31554" lon="4.50079">
        <ele>315</ele>
        <time>2021-07-04T14:01:30Z</time>
      </trkpt>
      <trkpt lat="44.31532" lon="4.50085">
        <ele>314</ele>
        <time>2021-07-04T14:01:35Z</time>
      </trkpt>
      <trkpt lat="44.3151" lon="4.50085">
        <ele>313</ele>
        <time>2021-07-04T14:01:40Z</time>
      </trkpt>
      <trkpt lat="44.31488" lon="4.50083">
        <ele>312</ele>
        <time>2021-07-04T14:01:45Z</time>
      </trkpt>
      <trkpt lat="44.31486" lon="4.50081">
        <ele>311</ele>
        <time>2021-07-04T14:01:46Z</time>
      </trkpt>
      <trkpt lat="44.31448" lon="4.50097">
        <ele>312</ele>
        <time>2021-07-04T14:01:55Z</time>
      </trkpt>
      <trkpt lat="44.31434" lon="4.50112">
        <ele>313</ele>
        <time>2021-07-04T14:01:59Z</time>
      </trkpt>
      <trkpt lat="44.31425" lon="4.50126">
        <ele>314</ele>
        <time>2021-07-04T14:02:02Z</time>
      </trkpt>
      <trkpt lat="44.31407" lon="4.50171">
        <ele>316</ele>
        <time>2021-07-04T14:02:11Z</time>
      </trkpt>
      <trkpt lat="44.31388" lon="4.50202">
        <ele>315</ele>
        <time>2021-07-04T14:02:18Z</time>
      </trkpt>
      <trkpt lat="44.31378" lon="4.50233">
        <ele>314</ele>
        <time>2021-07-04T14:02:23Z</time>
      </trkpt>
      <trkpt lat="44.31376" lon="4.5025">
        <ele>314</ele>
        <time>2021-07-04T14:02:26Z</time>
      </trkpt>
      <trkpt lat="44.31379" lon="4.50281">
        <ele>314</ele>
        <time>2021-07-04T14:02:32Z</time>
      </trkpt>
      <trkpt lat="44.31385" lon="4.50308">
        <ele>314</ele>
        <time>2021-07-04T14:02:36Z</time>
      </trkpt>
      <trkpt lat="44.31386" lon="4.50328">
        <ele>314</ele>
        <time>2021-07-04T14:02:40Z</time>
      </trkpt>
      <trkpt lat="44.31384" lon="4.5034">
        <ele>314</ele>
        <time>2021-07-04T14:02:42Z</time>
      </trkpt>
      <trkpt lat="44.31377" lon="4.50355">
        <ele>314</ele>
        <time>2021-07-04T14:02:45Z</time>
      </trkpt>
      <trkpt lat="44.31345" lon="4.50398">
        <ele>312</ele>
        <time>2021-07-04T14:02:55Z</time>
      </trkpt>
      <trkpt lat="44.31339" lon="4.50426">
        <ele>312</ele>
        <time>2021-07-04T14:03:00Z</time>
      </trkpt>
      <trkpt lat="44.31339" lon="4.50446">
        <ele>313</ele>
        <time>2021-07-04T14:03:03Z</time>
      </trkpt>
      <trkpt lat="44.31345" lon="4.50498">
        <ele>315</ele>
        <time>2021-07-04T14:03:12Z</time>
      </trkpt>
      <trkpt lat="44.31343" lon="4.50511">
        <ele>316</ele>
        <time>2021-07-04T14:03:14Z</time>
      </trkpt>
      <trkpt lat="44.31336" lon="4.50521">
        <ele>315</ele>
        <time>2021-07-04T14:03:17Z</time>
      </trkpt>
      <trkpt lat="44.31318" lon="4.50538">
        <ele>314</ele>
        <time>2021-07-04T14:03:22Z</time>
      </trkpt>
      <trkpt lat="44.31313" lon="4.50549">
        <ele>314</ele>
        <time>2021-07-04T14:03:24Z</time>
      </trkpt>
      <trkpt lat="44.31292" lon="4.50641">
        <ele>315</ele>
        <time>2021-07-04T14:03:40Z</time>
      </trkpt>
      <trkpt lat="44.31287" lon="4.50679">
        <ele>314</ele>
        <time>2021-07-04T14:03:46Z</time>
      </trkpt>
      <trkpt lat="44.3129" lon="4.50708">
        <ele>313</ele>
        <time>2021-07-04T14:03:51Z</time>
      </trkpt>
      <trkpt lat="44.31289" lon="4.50731">
        <ele>313</ele>
        <time>2021-07-04T14:03:55Z</time>
      </trkpt>
      <trkpt lat="44.31296" lon="4.50798">
        <ele>310</ele>
        <time>2021-07-04T14:04:07Z</time>
      </trkpt>
      <trkpt lat="44.31292" lon="4.50837">
        <ele>308</ele>
        <time>2021-07-04T14:04:13Z</time>
      </trkpt>
      <trkpt lat="44.31287" lon="4.50854">
        <ele>308</ele>
        <time>2021-07-04T14:04:16Z</time>
      </trkpt>
      <trkpt lat="44.31227" lon="4.50978">
        <ele>304</ele>
        <time>2021-07-04T14:04:41Z</time>
      </trkpt>
      <trkpt lat="44.31221" lon="4.51018">
        <ele>303</ele>
        <time>2021-07-04T14:04:48Z</time>
      </trkpt>
      <trkpt lat="44.31215" lon="4.5103">
        <ele>302</ele>
        <time>2021-07-04T14:04:50Z</time>
      </trkpt>
      <trkpt lat="44.31204" lon="4.51045">
        <ele>302</ele>
        <time>2021-07-04T14:04:54Z</time>
      </trkpt>
      <trkpt lat="44.31167" lon="4.51068">
        <ele>300</ele>
        <time>2021-07-04T14:05:04Z</time>
      </trkpt>
      <trkpt lat="44.31129" lon="4.51112">
        <ele>298</ele>
        <time>2021-07-04T14:05:15Z</time>
      </trkpt>
      <trkpt lat="44.31106" lon="4.51134">
        <ele>297</ele>
        <time>2021-07-04T14:05:22Z</time>
      </trkpt>
      <trkpt lat="44.31088" lon="4.5117">
        <ele>297</ele>
        <time>2021-07-04T14:05:29Z</time>
      </trkpt>
      <trkpt lat="44.31061" lon="4.51211">
        <ele>295</ele>
        <time>2021-07-04T14:05:38Z</time>
      </trkpt>
      <trkpt lat="44.3105" lon="4.51245">
        <ele>294</ele>
        <time>2021-07-04T14:05:44Z</time>
      </trkpt>
      <trkpt lat="44.31047" lon="4.51287">
        <ele>293</ele>
        <time>2021-07-04T14:05:51Z</time>
      </trkpt>
      <trkpt lat="44.31051" lon="4.51303">
        <ele>293</ele>
        <time>2021-07-04T14:05:54Z</time>
      </trkpt>
      <trkpt lat="44.31059" lon="4.51316">
        <ele>293</ele>
        <time>2021-07-04T14:05:57Z</time>
      </trkpt>
      <trkpt lat="44.31091" lon="4.51348">
        <ele>293</ele>
        <time>2021-07-04T14:06:06Z</time>
      </trkpt>
      <trkpt lat="44.31096" lon="4.51362">
        <ele>292</ele>
        <time>2021-07-04T14:06:09Z</time>
      </trkpt>
      <trkpt lat="44.31099" lon="4.51377">
        <ele>292</ele>
        <time>2021-07-04T14:06:12Z</time>
      </trkpt>
      <trkpt lat="44.31096" lon="4.51421">
        <ele>290</ele>
        <time>2021-07-04T14:06:19Z</time>
      </trkpt>
      <trkpt lat="44.31103" lon="4.51421">
        <ele>290</ele>
        <time>2021-07-04T14:06:21Z</time>
      </trkpt>
      <trkpt lat="44.31096" lon="4.51422">
        <ele>290</ele>
        <time>2021-07-04T14:06:22Z</time>
      </trkpt>
      <trkpt lat="44.31105" lon="4.51493">
        <ele>292</ele>
        <time>2021-07-04T14:06:34Z</time>
      </trkpt>
      <trkpt lat="44.31126" lon="4.5153">
        <ele>292</ele>
        <time>2021-07-04T14:06:42Z</time>
      </trkpt>
      <trkpt lat="44.31226" lon="4.51641">
        <ele>294</ele>
        <time>2021-07-04T14:07:12Z</time>
      </trkpt>
      <trkpt lat="44.31234" lon="4.51652">
        <ele>294</ele>
        <time>2021-07-04T14:07:15Z</time>
      </trkpt>
      <trkpt lat="44.31243" lon="4.51672">
        <ele>295</ele>
        <time>2021-07-04T14:07:19Z</time>
      </trkpt>
      <trkpt lat="44.31247" lon="4.51692">
        <ele>296</ele>
        <time>2021-07-04T14:07:22Z</time>
      </trkpt>
      <trkpt lat="44.3124" lon="4.51803">
        <ele>297</ele>
        <time>2021-07-04T14:07:41Z</time>
      </trkpt>
      <trkpt lat="44.31244" lon="4.51834">
        <ele>298</ele>
        <time>2021-07-04T14:07:46Z</time>
      </trkpt>
      <trkpt lat="44.31244" lon="4.51884">
        <ele>297</ele>
        <time>2021-07-04T14:07:54Z</time>
      </trkpt>
      <trkpt lat="44.31245" lon="4.51896">
        <ele>296</ele>
        <time>2021-07-04T14:07:56Z</time>
      </trkpt>
      <trkpt lat="44.31259" lon="4.51949">
        <ele>295</ele>
        <time>2021-07-04T14:08:06Z</time>
      </trkpt>
      <trkpt lat="44.3128" lon="4.52008">
        <ele>294</ele>
        <time>2021-07-04T14:08:17Z</time>
      </trkpt>
      <trkpt lat="44.31308" lon="4.52055">
        <ele>292</ele>
        <time>2021-07-04T14:08:27Z</time>
      </trkpt>
      <trkpt lat="44.31315" lon="4.52062">
        <ele>291</ele>
        <time>2021-07-04T14:08:29Z</time>
      </trkpt>
      <trkpt lat="44.31324" lon="4.52095">
        <ele>290</ele>
        <time>2021-07-04T14:08:35Z</time>
      </trkpt>
      <trkpt lat="44.3134" lon="4.52127">
        <ele>290</ele>
        <time>2021-07-04T14:08:41Z</time>
      </trkpt>
      <trkpt lat="44.31357" lon="4.5216">
        <ele>289</ele>
        <time>2021-07-04T14:08:48Z</time>
      </trkpt>
      <trkpt lat="44.31391" lon="4.5221">
        <ele>289</ele>
        <time>2021-07-04T14:09:00Z</time>
      </trkpt>
      <trkpt lat="44.31376" lon="4.52253">
        <ele>289</ele>
        <time>2021-07-04T14:09:08Z</time>
      </trkpt>
      <trkpt lat="44.31377" lon="4.52294">
        <ele>288</ele>
        <time>2021-07-04T14:09:15Z</time>
      </trkpt>
      <trkpt lat="44.31475" lon="4.52548">
        <ele>284</ele>
        <time>2021-07-04T14:10:03Z</time>
      </trkpt>
      <trkpt lat="44.31509" lon="4.52658">
        <ele>283</ele>
        <time>2021-07-04T14:10:23Z</time>
      </trkpt>
      <trkpt lat="44.31523" lon="4.52793">
        <ele>280</ele>
        <time>2021-07-04T14:10:46Z</time>
      </trkpt>
      <trkpt lat="44.31532" lon="4.52853">
        <ele>277</ele>
        <time>2021-07-04T14:10:56Z</time>
      </trkpt>
      <trkpt lat="44.31533" lon="4.52887">
        <ele>275</ele>
        <time>2021-07-04T14:11:02Z</time>
      </trkpt>
      <trkpt lat="44.31528" lon="4.52931">
        <ele>273</ele>
        <time>2021-07-04T14:11:09Z</time>
      </trkpt>
      <trkpt lat="44.31521" lon="4.52962">
        <ele>273</ele>
        <time>2021-07-04T14:11:14Z</time>
      </trkpt>
      <trkpt lat="44.31493" lon="4.53038">
        <ele>270</ele>
        <time>2021-07-04T14:11:29Z</time>
      </trkpt>
      <trkpt lat="44.31479" lon="4.53056">
        <ele>268</ele>
        <time>2021-07-04T14:11:33Z</time>
      </trkpt>
      <trkpt lat="44.3146" lon="4.53095">
        <ele>266</ele>
        <time>2021-07-04T14:11:41Z</time>
      </trkpt>
      <trkpt lat="44.31435" lon="4.53137">
        <ele>263</ele>
        <time>2021-07-04T14:11:50Z</time>
      </trkpt>
      <trkpt lat="44.31393" lon="4.53194">
        <ele>259</ele>
        <time>2021-07-04T14:12:04Z</time>
      </trkpt>
      <trkpt lat="44.31385" lon="4.53212">
        <ele>258</ele>
        <time>2021-07-04T14:12:07Z</time>
      </trkpt>
      <trkpt lat="44.3138" lon="4.53235">
        <ele>257</ele>
        <time>2021-07-04T14:12:11Z</time>
      </trkpt>
      <trkpt lat="44.31377" lon="4.53282">
        <ele>257</ele>
        <time>2021-07-04T14:12:19Z</time>
      </trkpt>
      <trkpt lat="44.31347" lon="4.53371">
        <ele>255</ele>
        <time>2021-07-04T14:12:36Z</time>
      </trkpt>
      <trkpt lat="44.31366" lon="4.5336">
        <ele>256</ele>
        <time>2021-07-04T14:12:41Z</time>
      </trkpt>
      <trkpt lat="44.3138" lon="4.53357">
        <ele>256</ele>
        <time>2021-07-04T14:12:44Z</time>
      </trkpt>
      <trkpt lat="44.31394" lon="4.53347">
        <ele>256</ele>
        <time>2021-07-04T14:12:48Z</time>
      </trkpt>
      <trkpt lat="44.3139" lon="4.53381">
        <ele>256</ele>
        <time>2021-07-04T14:12:53Z</time>
      </trkpt>
      <trkpt lat="44.31387" lon="4.53446">
        <ele>254</ele>
        <time>2021-07-04T14:13:04Z</time>
      </trkpt>
      <trkpt lat="44.31384" lon="4.53464">
        <ele>253</ele>
        <time>2021-07-04T14:13:07Z</time>
      </trkpt>
      <trkpt lat="44.31376" lon="4.53483">
        <ele>252</ele>
        <time>2021-07-04T14:13:11Z</time>
      </trkpt>
      <trkpt lat="44.31369" lon="4.53497">
        <ele>251</ele>
        <time>2021-07-04T14:13:14Z</time>
      </trkpt>
      <trkpt lat="44.31352" lon="4.53521">
        <ele>248</ele>
        <time>2021-07-04T14:13:19Z</time>
      </trkpt>
      <trkpt lat="44.31351" lon="4.53559">
        <ele>247</ele>
        <time>2021-07-04T14:13:26Z</time>
      </trkpt>
      <trkpt lat="44.3134" lon="4.53617">
        <ele>243</ele>
        <time>2021-07-04T14:13:36Z</time>
      </trkpt>
      <trkpt lat="44.31345" lon="4.5367">
        <ele>241</ele>
        <time>2021-07-04T14:13:45Z</time>
      </trkpt>
      <trkpt lat="44.31383" lon="4.53765">
        <ele>240</ele>
        <time>2021-07-04T14:14:03Z</time>
      </trkpt>
      <trkpt lat="44.31395" lon="4.53785">
        <ele>241</ele>
        <time>2021-07-04T14:14:07Z</time>
      </trkpt>
      <trkpt lat="44.31444" lon="4.53838">
        <ele>242</ele>
        <time>2021-07-04T14:14:22Z</time>
      </trkpt>
      <trkpt lat="44.31485" lon="4.5387">
        <ele>244</ele>
        <time>2021-07-04T14:14:33Z</time>
      </trkpt>
      <trkpt lat="44.31518" lon="4.53939">
        <ele>246</ele>
        <time>2021-07-04T14:14:47Z</time>
      </trkpt>
      <trkpt lat="44.31518" lon="4.5397">
        <ele>247</ele>
        <time>2021-07-04T14:14:52Z</time>
      </trkpt>
      <trkpt lat="44.31508" lon="4.54024">
        <ele>249</ele>
        <time>2021-07-04T14:15:01Z</time>
      </trkpt>
      <trkpt lat="44.31491" lon="4.54144">
        <ele>253</ele>
        <time>2021-07-04T14:15:22Z</time>
      </trkpt>
      <trkpt lat="44.31493" lon="4.54179">
        <ele>254</ele>
        <time>2021-07-04T14:15:27Z</time>
      </trkpt>
      <trkpt lat="44.31497" lon="4.542">
        <ele>253</ele>
        <time>2021-07-04T14:15:31Z</time>
      </trkpt>
      <trkpt lat="44.31496" lon="4.5421">
        <ele>252</ele>
        <time>2021-07-04T14:15:33Z</time>
      </trkpt>
      <trkpt lat="44.31489" lon="4.54221">
        <ele>251</ele>
        <time>2021-07-04T14:15:35Z</time>
      </trkpt>
      <trkpt lat="44.31474" lon="4.54226">
        <ele>250</ele>
        <time>2021-07-04T14:15:39Z</time>
      </trkpt>
      <trkpt lat="44.3147" lon="4.5423">
        <ele>249</ele>
        <time>2021-07-04T14:15:40Z</time>
      </trkpt>
      <trkpt lat="44.31461" lon="4.54229">
        <ele>249</ele>
        <time>2021-07-04T14:15:42Z</time>
      </trkpt>
      <trkpt lat="44.31434" lon="4.54245">
        <ele>246</ele>
        <time>2021-07-04T14:15:49Z</time>
      </trkpt>
      <trkpt lat="44.31406" lon="4.54279">
        <ele>241</ele>
        <time>2021-07-04T14:15:58Z</time>
      </trkpt>
      <trkpt lat="44.31374" lon="4.54324">
        <ele>239</ele>
        <time>2021-07-04T14:16:08Z</time>
      </trkpt>
      <trkpt lat="44.31322" lon="4.5437">
        <ele>243</ele>
        <time>2021-07-04T14:16:23Z</time>
      </trkpt>
      <trkpt lat="44.31315" lon="4.54373">
        <ele>242</ele>
        <time>2021-07-04T14:16:24Z</time>
      </trkpt>
      <trkpt lat="44.31303" lon="4.54384">
        <ele>242</ele>
        <time>2021-07-04T14:16:28Z</time>
      </trkpt>
      <trkpt lat="44.31296" lon="4.54385">
        <ele>242</ele>
        <time>2021-07-04T14:16:29Z</time>
      </trkpt>
      <trkpt lat="44.31286" lon="4.54403">
        <ele>243</ele>
        <time>2021-07-04T14:16:33Z</time>
      </trkpt>
      <trkpt lat="44.31279" lon="4.54408">
        <ele>243</ele>
        <time>2021-07-04T14:16:35Z</time>
      </trkpt>
      <trkpt lat="44.31268" lon="4.54431">
        <ele>242</ele>
        <time>2021-07-04T14:16:39Z</time>
      </trkpt>
      <trkpt lat="44.31261" lon="4.54435">
        <ele>241</ele>
        <time>2021-07-04T14:16:41Z</time>
      </trkpt>
      <trkpt lat="44.31255" lon="4.54453">
        <ele>240</ele>
        <time>2021-07-04T14:16:45Z</time>
      </trkpt>
      <trkpt lat="44.31249" lon="4.54459">
        <ele>240</ele>
        <time>2021-07-04T14:16:46Z</time>
      </trkpt>
      <trkpt lat="44.31244" lon="4.54469">
        <ele>239</ele>
        <time>2021-07-04T14:16:48Z</time>
      </trkpt>
      <trkpt lat="44.3124" lon="4.54473">
        <ele>239</ele>
        <time>2021-07-04T14:16:49Z</time>
      </trkpt>
      <trkpt lat="44.31237" lon="4.54465">
        <ele>239</ele>
        <time>2021-07-04T14:16:51Z</time>
      </trkpt>
      <trkpt lat="44.3124" lon="4.54473">
        <ele>239</ele>
        <time>2021-07-04T14:16:52Z</time>
      </trkpt>
      <trkpt lat="44.31216" lon="4.54496">
        <ele>237</ele>
        <time>2021-07-04T14:16:59Z</time>
      </trkpt>
      <trkpt lat="44.31211" lon="4.54508">
        <ele>235</ele>
        <time>2021-07-04T14:17:02Z</time>
      </trkpt>
      <trkpt lat="44.31205" lon="4.54515">
        <ele>234</ele>
        <time>2021-07-04T14:17:03Z</time>
      </trkpt>
      <trkpt lat="44.312" lon="4.54515">
        <ele>234</ele>
        <time>2021-07-04T14:17:05Z</time>
      </trkpt>
      <trkpt lat="44.31192" lon="4.5453">
        <ele>231</ele>
        <time>2021-07-04T14:17:08Z</time>
      </trkpt>
      <trkpt lat="44.31171" lon="4.54558">
        <ele>228</ele>
        <time>2021-07-04T14:17:15Z</time>
      </trkpt>
      <trkpt lat="44.31159" lon="4.5458">
        <ele>225</ele>
        <time>2021-07-04T14:17:19Z</time>
      </trkpt>
      <trkpt lat="44.31126" lon="4.54613">
        <ele>217</ele>
        <time>2021-07-04T14:17:29Z</time>
      </trkpt>
      <trkpt lat="44.31107" lon="4.54626">
        <ele>214</ele>
        <time>2021-07-04T14:17:34Z</time>
      </trkpt>
      <trkpt lat="44.31096" lon="4.54639">
        <ele>212</ele>
        <time>2021-07-04T14:17:37Z</time>
      </trkpt>
      <trkpt lat="44.31066" lon="4.54661">
        <ele>208</ele>
        <time>2021-07-04T14:17:45Z</time>
      </trkpt>
      <trkpt lat="44.31046" lon="4.54706">
        <ele>200</ele>
        <time>2021-07-04T14:17:54Z</time>
      </trkpt>
      <trkpt lat="44.31038" lon="4.54734">
        <ele>197</ele>
        <time>2021-07-04T14:17:59Z</time>
      </trkpt>
      <trkpt lat="44.31025" lon="4.54753">
        <ele>196</ele>
        <time>2021-07-04T14:18:03Z</time>
      </trkpt>
      <trkpt lat="44.31003" lon="4.54833">
        <ele>188</ele>
        <time>2021-07-04T14:18:17Z</time>
      </trkpt>
      <trkpt lat="44.31002" lon="4.54846">
        <ele>186</ele>
        <time>2021-07-04T14:18:20Z</time>
      </trkpt>
      <trkpt lat="44.30993" lon="4.5486">
        <ele>184</ele>
        <time>2021-07-04T14:18:23Z</time>
      </trkpt>
      <trkpt lat="44.30983" lon="4.54884">
        <ele>181</ele>
        <time>2021-07-04T14:18:27Z</time>
      </trkpt>
      <trkpt lat="44.30965" lon="4.54909">
        <ele>178</ele>
        <time>2021-07-04T14:18:33Z</time>
      </trkpt>
      <trkpt lat="44.30952" lon="4.54922">
        <ele>176</ele>
        <time>2021-07-04T14:18:37Z</time>
      </trkpt>
      <trkpt lat="44.30946" lon="4.54938">
        <ele>173</ele>
        <time>2021-07-04T14:18:40Z</time>
      </trkpt>
      <trkpt lat="44.30938" lon="4.54941">
        <ele>173</ele>
        <time>2021-07-04T14:18:42Z</time>
      </trkpt>
      <trkpt lat="44.30934" lon="4.54947">
        <ele>172</ele>
        <time>2021-07-04T14:18:43Z</time>
      </trkpt>
      <trkpt lat="44.30917" lon="4.54954">
        <ele>173</ele>
        <time>2021-07-04T14:18:48Z</time>
      </trkpt>
      <trkpt lat="44.30911" lon="4.54968">
        <ele>170</ele>
        <time>2021-07-04T14:18:50Z</time>
      </trkpt>
      <trkpt lat="44.30898" lon="4.54974">
        <ele>169</ele>
        <time>2021-07-04T14:18:53Z</time>
      </trkpt>
      <trkpt lat="44.30892" lon="4.54981">
        <ele>168</ele>
        <time>2021-07-04T14:18:55Z</time>
      </trkpt>
      <trkpt lat="44.30886" lon="4.54981">
        <ele>168</ele>
        <time>2021-07-04T14:18:57Z</time>
      </trkpt>
      <trkpt lat="44.30881" lon="4.54985">
        <ele>167</ele>
        <time>2021-07-04T14:18:58Z</time>
      </trkpt>
      <trkpt lat="44.3087" lon="4.54988">
        <ele>167</ele>
        <time>2021-07-04T14:19:01Z</time>
      </trkpt>
      <trkpt lat="44.30848" lon="4.55014">
        <ele>164</ele>
        <time>2021-07-04T14:19:07Z</time>
      </trkpt>
      <trkpt lat="44.30857" lon="4.55048">
        <ele>159</ele>
        <time>2021-07-04T14:19:13Z</time>
      </trkpt>
      <trkpt lat="44.30855" lon="4.55072">
        <ele>156</ele>
        <time>2021-07-04T14:19:17Z</time>
      </trkpt>
      <trkpt lat="44.3085" lon="4.55084">
        <ele>155</ele>
        <time>2021-07-04T14:19:20Z</time>
      </trkpt>
      <trkpt lat="44.30844" lon="4.55082">
        <ele>156</ele>
        <time>2021-07-04T14:19:21Z</time>
      </trkpt>
      <trkpt lat="44.30838" lon="4.55085">
        <ele>157</ele>
        <time>2021-07-04T14:19:23Z</time>
      </trkpt>
      <trkpt lat="44.30838" lon="4.55111">
        <ele>155</ele>
        <time>2021-07-04T14:19:27Z</time>
      </trkpt>
      <trkpt lat="44.30842" lon="4.55129">
        <ele>152</ele>
        <time>2021-07-04T14:19:30Z</time>
      </trkpt>
      <trkpt lat="44.30835" lon="4.55145">
        <ele>152</ele>
        <time>2021-07-04T14:19:33Z</time>
      </trkpt>
      <trkpt lat="44.30831" lon="4.55145">
        <ele>153</ele>
        <time>2021-07-04T14:19:34Z</time>
      </trkpt>
      <trkpt lat="44.30833" lon="4.55172">
        <ele>149</ele>
        <time>2021-07-04T14:19:39Z</time>
      </trkpt>
      <trkpt lat="44.30795" lon="4.55213">
        <ele>136</ele>
        <time>2021-07-04T14:19:50Z</time>
      </trkpt>
      <trkpt lat="44.30766" lon="4.55251">
        <ele>136</ele>
        <time>2021-07-04T14:19:59Z</time>
      </trkpt>
      <trkpt lat="44.30748" lon="4.55262">
        <ele>137</ele>
        <time>2021-07-04T14:20:04Z</time>
      </trkpt>
      <trkpt lat="44.30734" lon="4.55267">
        <ele>134</ele>
        <time>2021-07-04T14:20:07Z</time>
      </trkpt>
      <trkpt lat="44.3072" lon="4.55289">
        <ele>128</ele>
        <time>2021-07-04T14:20:12Z</time>
      </trkpt>
      <trkpt lat="44.30697" lon="4.55308">
        <ele>126</ele>
        <time>2021-07-04T14:20:18Z</time>
      </trkpt>
      <trkpt lat="44.30689" lon="4.55328">
        <ele>124</ele>
        <time>2021-07-04T14:20:22Z</time>
      </trkpt>
      <trkpt lat="44.30665" lon="4.5534">
        <ele>126</ele>
        <time>2021-07-04T14:20:28Z</time>
      </trkpt>
      <trkpt lat="44.30648" lon="4.55364">
        <ele>117</ele>
        <time>2021-07-04T14:20:34Z</time>
      </trkpt>
      <trkpt lat="44.30635" lon="4.55389">
        <ele>110</ele>
        <time>2021-07-04T14:20:39Z</time>
      </trkpt>
      <trkpt lat="44.30616" lon="4.55397">
        <ele>109</ele>
        <time>2021-07-04T14:20:44Z</time>
      </trkpt>
      <trkpt lat="44.3058" lon="4.55421">
        <ele>109</ele>
        <time>2021-07-04T14:20:53Z</time>
      </trkpt>
      <trkpt lat="44.30566" lon="4.55434">
        <ele>104</ele>
        <time>2021-07-04T14:20:57Z</time>
      </trkpt>
      <trkpt lat="44.30562" lon="4.5545">
        <ele>98</ele>
        <time>2021-07-04T14:21:00Z</time>
      </trkpt>
      <trkpt lat="44.30549" lon="4.55451">
        <ele>98</ele>
        <time>2021-07-04T14:21:03Z</time>
      </trkpt>
      <trkpt lat="44.3054" lon="4.55465">
        <ele>94</ele>
        <time>2021-07-04T14:21:06Z</time>
      </trkpt>
      <trkpt lat="44.30522" lon="4.55468">
        <ele>94</ele>
        <time>2021-07-04T14:21:10Z</time>
      </trkpt>
      <trkpt lat="44.30508" lon="4.55486">
        <ele>92</ele>
        <time>2021-07-04T14:21:15Z</time>
      </trkpt>
      <trkpt lat="44.30471" lon="4.55511">
        <ele>90</ele>
        <time>2021-07-04T14:21:24Z</time>
      </trkpt>
      <trkpt lat="44.30465" lon="4.55531">
        <ele>88</ele>
        <time>2021-07-04T14:21:28Z</time>
      </trkpt>
      <trkpt lat="44.30443" lon="4.55534">
        <ele>90</ele>
        <time>2021-07-04T14:21:33Z</time>
      </trkpt>
      <trkpt lat="44.30443" lon="4.55564">
        <ele>86</ele>
        <time>2021-07-04T14:21:38Z</time>
      </trkpt>
      <trkpt lat="44.30416" lon="4.55567">
        <ele>91</ele>
        <time>2021-07-04T14:21:44Z</time>
      </trkpt>
      <trkpt lat="44.30417" lon="4.55577">
        <ele>90</ele>
        <time>2021-07-04T14:21:46Z</time>
      </trkpt>
      <trkpt lat="44.30392" lon="4.55573">
        <ele>92</ele>
        <time>2021-07-04T14:21:52Z</time>
      </trkpt>
      <trkpt lat="44.30401" lon="4.55613">
        <ele>84</ele>
        <time>2021-07-04T14:21:59Z</time>
      </trkpt>
      <trkpt lat="44.30392" lon="4.55626">
        <ele>83</ele>
        <time>2021-07-04T14:22:02Z</time>
      </trkpt>
      <trkpt lat="44.30364" lon="4.55641">
        <ele>85</ele>
        <time>2021-07-04T14:22:09Z</time>
      </trkpt>
      <trkpt lat="44.30352" lon="4.55656">
        <ele>86</ele>
        <time>2021-07-04T14:22:13Z</time>
      </trkpt>
      <trkpt lat="44.30322" lon="4.55672">
        <ele>88</ele>
        <time>2021-07-04T14:22:20Z</time>
      </trkpt>
      <trkpt lat="44.30304" lon="4.55676">
        <ele>87</ele>
        <time>2021-07-04T14:22:24Z</time>
      </trkpt>
      <trkpt lat="44.30301" lon="4.55664">
        <ele>90</ele>
        <time>2021-07-04T14:22:27Z</time>
      </trkpt>
      <trkpt lat="44.30291" lon="4.55659">
        <ele>91</ele>
        <time>2021-07-04T14:22:29Z</time>
      </trkpt>
      <trkpt lat="44.30271" lon="4.55668">
        <ele>91</ele>
        <time>2021-07-04T14:22:34Z</time>
      </trkpt>
      <trkpt lat="44.30271" lon="4.55645">
        <ele>92</ele>
        <time>2021-07-04T14:22:38Z</time>
      </trkpt>
      <trkpt lat="44.30281" lon="4.55615">
        <ele>92</ele>
        <time>2021-07-04T14:22:43Z</time>
      </trkpt>
      <trkpt lat="44.30233" lon="4.5554">
        <ele>93</ele>
        <time>2021-07-04T14:23:00Z</time>
      </trkpt>
      <trkpt lat="44.30198" lon="4.55497">
        <ele>94</ele>
        <time>2021-07-04T14:23:11Z</time>
      </trkpt>
      <trkpt lat="44.30182" lon="4.55486">
        <ele>95</ele>
        <time>2021-07-04T14:23:15Z</time>
      </trkpt>
      <trkpt lat="44.30137" lon="4.55481">
        <ele>96</ele>
        <time>2021-07-04T14:23:26Z</time>
      </trkpt>
      <trkpt lat="44.3013" lon="4.55447">
        <ele>95</ele>
        <time>2021-07-04T14:23:32Z</time>
      </trkpt>
      <trkpt lat="44.3012" lon="4.55356">
        <ele>96</ele>
        <time>2021-07-04T14:23:47Z</time>
      </trkpt>
      <trkpt lat="44.30117" lon="4.553">
        <ele>97</ele>
        <time>2021-07-04T14:23:56Z</time>
      </trkpt>
      <trkpt lat="44.30082" lon="4.55295">
        <ele>95</ele>
        <time>2021-07-04T14:24:05Z</time>
      </trkpt>
      <trkpt lat="44.30068" lon="4.55283">
        <ele>96</ele>
        <time>2021-07-04T14:24:08Z</time>
      </trkpt>
      <trkpt lat="44.30051" lon="4.55262">
        <ele>96</ele>
        <time>2021-07-04T14:24:14Z</time>
      </trkpt>
      <trkpt lat="44.30031" lon="4.55247">
        <ele>97</ele>
        <time>2021-07-04T14:24:19Z</time>
      </trkpt>
      <trkpt lat="44.29985" lon="4.55232">
        <ele>97</ele>
        <time>2021-07-04T14:24:30Z</time>
      </trkpt>
      <trkpt lat="44.29972" lon="4.55222">
        <ele>97</ele>
        <time>2021-07-04T14:24:34Z</time>
      </trkpt>
      <trkpt lat="44.29889" lon="4.55132">
        <ele>94</ele>
        <time>2021-07-04T14:24:58Z</time>
      </trkpt>
      <trkpt lat="44.29858" lon="4.55111">
        <ele>93</ele>
        <time>2021-07-04T14:25:06Z</time>
      </trkpt>
      <trkpt lat="44.29853" lon="4.5511">
        <ele>93</ele>
        <time>2021-07-04T14:25:07Z</time>
      </trkpt>
      <trkpt lat="44.29848" lon="4.55082">
        <ele>93</ele>
        <time>2021-07-04T14:25:12Z</time>
      </trkpt>
      <trkpt lat="44.29826" lon="4.55025">
        <ele>93</ele>
        <time>2021-07-04T14:25:23Z</time>
      </trkpt>
      <trkpt lat="44.29819" lon="4.54983">
        <ele>93</ele>
        <time>2021-07-04T14:25:30Z</time>
      </trkpt>
      <trkpt lat="44.29814" lon="4.54897">
        <ele>94</ele>
        <time>2021-07-04T14:25:45Z</time>
      </trkpt>
      <trkpt lat="44.29817" lon="4.54822">
        <ele>95</ele>
        <time>2021-07-04T14:25:57Z</time>
      </trkpt>
      <trkpt lat="44.29831" lon="4.5475">
        <ele>94</ele>
        <time>2021-07-04T14:26:10Z</time>
      </trkpt>
      <trkpt lat="44.29831" lon="4.54727">
        <ele>95</ele>
        <time>2021-07-04T14:26:13Z</time>
      </trkpt>
      <trkpt lat="44.29827" lon="4.54715">
        <ele>95</ele>
        <time>2021-07-04T14:26:16Z</time>
      </trkpt>
      <trkpt lat="44.29806" lon="4.54692">
        <ele>95</ele>
        <time>2021-07-04T14:26:22Z</time>
      </trkpt>
      <trkpt lat="44.29794" lon="4.54674">
        <ele>95</ele>
        <time>2021-07-04T14:26:26Z</time>
      </trkpt>
      <trkpt lat="44.29754" lon="4.54594">
        <ele>95</ele>
        <time>2021-07-04T14:26:42Z</time>
      </trkpt>
      <trkpt lat="44.29739" lon="4.54555">
        <ele>94</ele>
        <time>2021-07-04T14:26:50Z</time>
      </trkpt>
      <trkpt lat="44.29726" lon="4.54502">
        <ele>93</ele>
        <time>2021-07-04T14:26:59Z</time>
      </trkpt>
      <trkpt lat="44.29724" lon="4.54437">
        <ele>95</ele>
        <time>2021-07-04T14:27:10Z</time>
      </trkpt>
      <trkpt lat="44.29699" lon="4.54385">
        <ele>96</ele>
        <time>2021-07-04T14:27:20Z</time>
      </trkpt>
      <trkpt lat="44.29697" lon="4.54372">
        <ele>96</ele>
        <time>2021-07-04T14:27:23Z</time>
      </trkpt>
      <trkpt lat="44.29672" lon="4.54064">
        <ele>98</ele>
        <time>2021-07-04T14:28:14Z</time>
      </trkpt>
      <trkpt lat="44.29674" lon="4.54025">
        <ele>98</ele>
        <time>2021-07-04T14:28:21Z</time>
      </trkpt>
      <trkpt lat="44.29668" lon="4.5397">
        <ele>99</ele>
        <time>2021-07-04T14:28:30Z</time>
      </trkpt>
      <trkpt lat="44.29669" lon="4.53925">
        <ele>100</ele>
        <time>2021-07-04T14:28:38Z</time>
      </trkpt>
      <trkpt lat="44.29666" lon="4.53892">
        <ele>101</ele>
        <time>2021-07-04T14:28:43Z</time>
      </trkpt>
      <trkpt lat="44.29653" lon="4.53819">
        <ele>102</ele>
        <time>2021-07-04T14:28:56Z</time>
      </trkpt>
      <trkpt lat="44.29651" lon="4.53773">
        <ele>103</ele>
        <time>2021-07-04T14:29:04Z</time>
      </trkpt>
      <trkpt lat="44.29654" lon="4.53716">
        <ele>103</ele>
        <time>2021-07-04T14:29:13Z</time>
      </trkpt>
      <trkpt lat="44.29654" lon="4.53638">
        <ele>103</ele>
        <time>2021-07-04T14:29:26Z</time>
      </trkpt>
      <trkpt lat="44.29659" lon="4.53624">
        <ele>104</ele>
        <time>2021-07-04T14:29:29Z</time>
      </trkpt>
      <trkpt lat="44.29652" lon="4.53586">
        <ele>105</ele>
        <time>2021-07-04T14:29:35Z</time>
      </trkpt>
      <trkpt lat="44.29649" lon="4.5358">
        <ele>105</ele>
        <time>2021-07-04T14:29:37Z</time>
      </trkpt>
      <trkpt lat="44.29642" lon="4.53572">
        <ele>105</ele>
        <time>2021-07-04T14:29:39Z</time>
      </trkpt>
      <trkpt lat="44.29632" lon="4.53568">
        <ele>104</ele>
        <time>2021-07-04T14:29:41Z</time>
      </trkpt>
      <trkpt lat="44.29512" lon="4.53582">
        <ele>100</ele>
        <time>2021-07-04T14:30:09Z</time>
      </trkpt>
      <trkpt lat="44.29463" lon="4.53572">
        <ele>97</ele>
        <time>2021-07-04T14:30:21Z</time>
      </trkpt>
      <trkpt lat="44.29445" lon="4.53567">
        <ele>96</ele>
        <time>2021-07-04T14:30:25Z</time>
      </trkpt>
      <trkpt lat="44.29344" lon="4.53489">
        <ele>88</ele>
        <time>2021-07-04T14:30:52Z</time>
      </trkpt>
      <trkpt lat="44.29327" lon="4.53485">
        <ele>87</ele>
        <time>2021-07-04T14:30:56Z</time>
      </trkpt>
      <trkpt lat="44.29299" lon="4.53495">
        <ele>85</ele>
        <time>2021-07-04T14:31:03Z</time>
      </trkpt>
      <trkpt lat="44.29284" lon="4.53496">
        <ele>84</ele>
        <time>2021-07-04T14:31:06Z</time>
      </trkpt>
      <trkpt lat="44.29264" lon="4.53489">
        <ele>83</ele>
        <time>2021-07-04T14:31:11Z</time>
      </trkpt>
      <trkpt lat="44.29217" lon="4.53465">
        <ele>87</ele>
        <time>2021-07-04T14:31:23Z</time>
      </trkpt>
      <trkpt lat="44.29203" lon="4.53467">
        <ele>88</ele>
        <time>2021-07-04T14:31:26Z</time>
      </trkpt>
      <trkpt lat="44.29182" lon="4.53481">
        <ele>88</ele>
        <time>2021-07-04T14:31:32Z</time>
      </trkpt>
      <trkpt lat="44.2917" lon="4.53484">
        <ele>88</ele>
        <time>2021-07-04T14:31:34Z</time>
      </trkpt>
      <trkpt lat="44.29149" lon="4.53485">
        <ele>88</ele>
        <time>2021-07-04T14:31:39Z</time>
      </trkpt>
      <trkpt lat="44.29107" lon="4.53473">
        <ele>91</ele>
        <time>2021-07-04T14:31:49Z</time>
      </trkpt>
      <trkpt lat="44.29064" lon="4.53464">
        <ele>92</ele>
        <time>2021-07-04T14:32:00Z</time>
      </trkpt>
      <trkpt lat="44.2902" lon="4.53449">
        <ele>92</ele>
        <time>2021-07-04T14:32:10Z</time>
      </trkpt>
      <trkpt lat="44.28985" lon="4.5342">
        <ele>91</ele>
        <time>2021-07-04T14:32:20Z</time>
      </trkpt>
      <trkpt lat="44.28961" lon="4.53392">
        <ele>92</ele>
        <time>2021-07-04T14:32:27Z</time>
      </trkpt>
      <trkpt lat="44.28939" lon="4.53373">
        <ele>92</ele>
        <time>2021-07-04T14:32:33Z</time>
      </trkpt>
      <trkpt lat="44.28932" lon="4.53364">
        <ele>92</ele>
        <time>2021-07-04T14:32:35Z</time>
      </trkpt>
      <trkpt lat="44.2891" lon="4.53315">
        <ele>93</ele>
        <time>2021-07-04T14:32:45Z</time>
      </trkpt>
      <trkpt lat="44.28894" lon="4.53272">
        <ele>94</ele>
        <time>2021-07-04T14:32:53Z</time>
      </trkpt>
      <trkpt lat="44.28881" lon="4.53246">
        <ele>95</ele>
        <time>2021-07-04T14:32:58Z</time>
      </trkpt>
      <trkpt lat="44.28867" lon="4.53226">
        <ele>97</ele>
        <time>2021-07-04T14:33:03Z</time>
      </trkpt>
      <trkpt lat="44.28824" lon="4.53185">
        <ele>100</ele>
        <time>2021-07-04T14:33:15Z</time>
      </trkpt>
      <trkpt lat="44.28785" lon="4.53153">
        <ele>101</ele>
        <time>2021-07-04T14:33:26Z</time>
      </trkpt>
      <trkpt lat="44.28731" lon="4.53121">
        <ele>101</ele>
        <time>2021-07-04T14:33:39Z</time>
      </trkpt>
      <trkpt lat="44.28712" lon="4.53097">
        <ele>103</ele>
        <time>2021-07-04T14:33:45Z</time>
      </trkpt>
      <trkpt lat="44.28708" lon="4.53082">
        <ele>104</ele>
        <time>2021-07-04T14:33:48Z</time>
      </trkpt>
      <trkpt lat="44.28716" lon="4.53077">
        <ele>105</ele>
        <time>2021-07-04T14:33:50Z</time>
      </trkpt>
      <trkpt lat="44.28726" lon="4.53077">
        <ele>105</ele>
        <time>2021-07-04T14:33:52Z</time>
      </trkpt>
      <trkpt lat="44.28766" lon="4.53093">
        <ele>106</ele>
        <time>2021-07-04T14:34:02Z</time>
      </trkpt>
      <trkpt lat="44.28779" lon="4.53095">
        <ele>106</ele>
        <time>2021-07-04T14:34:05Z</time>
      </trkpt>
      <trkpt lat="44.28794" lon="4.5309">
        <ele>108</ele>
        <time>2021-07-04T14:34:09Z</time>
      </trkpt>
      <trkpt lat="44.28818" lon="4.53041">
        <ele>112</ele>
        <time>2021-07-04T14:34:19Z</time>
      </trkpt>
      <trkpt lat="44.28828" lon="4.53035">
        <ele>113</ele>
        <time>2021-07-04T14:34:21Z</time>
      </trkpt>
      <trkpt lat="44.28857" lon="4.53027">
        <ele>116</ele>
        <time>2021-07-04T14:34:28Z</time>
      </trkpt>
      <trkpt lat="44.28876" lon="4.53012">
        <ele>118</ele>
        <time>2021-07-04T14:34:33Z</time>
      </trkpt>
      <trkpt lat="44.28902" lon="4.52982">
        <ele>120</ele>
        <time>2021-07-04T14:34:41Z</time>
      </trkpt>
      <trkpt lat="44.28915" lon="4.52977">
        <ele>121</ele>
        <time>2021-07-04T14:34:44Z</time>
      </trkpt>
      <trkpt lat="44.28945" lon="4.52984">
        <ele>122</ele>
        <time>2021-07-04T14:34:51Z</time>
      </trkpt>
      <trkpt lat="44.28958" lon="4.52981">
        <ele>123</ele>
        <time>2021-07-04T14:34:54Z</time>
      </trkpt>
      <trkpt lat="44.28995" lon="4.52943">
        <ele>126</ele>
        <time>2021-07-04T14:35:05Z</time>
      </trkpt>
      <trkpt lat="44.29017" lon="4.52896">
        <ele>132</ele>
        <time>2021-07-04T14:35:15Z</time>
      </trkpt>
      <trkpt lat="44.29027" lon="4.52868">
        <ele>136</ele>
        <time>2021-07-04T14:35:20Z</time>
      </trkpt>
      <trkpt lat="44.29032" lon="4.52861">
        <ele>137</ele>
        <time>2021-07-04T14:35:21Z</time>
      </trkpt>
      <trkpt lat="44.29069" lon="4.52841">
        <ele>142</ele>
        <time>2021-07-04T14:35:31Z</time>
      </trkpt>
      <trkpt lat="44.29076" lon="4.52832">
        <ele>143</ele>
        <time>2021-07-04T14:35:33Z</time>
      </trkpt>
      <trkpt lat="44.29082" lon="4.52816">
        <ele>144</ele>
        <time>2021-07-04T14:35:36Z</time>
      </trkpt>
      <trkpt lat="44.29088" lon="4.52812">
        <ele>144</ele>
        <time>2021-07-04T14:35:37Z</time>
      </trkpt>
      <trkpt lat="44.29119" lon="4.52819">
        <ele>140</ele>
        <time>2021-07-04T14:35:45Z</time>
      </trkpt>
      <trkpt lat="44.29137" lon="4.52835">
        <ele>138</ele>
        <time>2021-07-04T14:35:50Z</time>
      </trkpt>
      <trkpt lat="44.29153" lon="4.52856">
        <ele>138</ele>
        <time>2021-07-04T14:35:55Z</time>
      </trkpt>
      <trkpt lat="44.29157" lon="4.52854">
        <ele>137</ele>
        <time>2021-07-04T14:35:56Z</time>
      </trkpt>
      <trkpt lat="44.29157" lon="4.52848">
        <ele>137</ele>
        <time>2021-07-04T14:35:57Z</time>
      </trkpt>
      <trkpt lat="44.29147" lon="4.52827">
        <ele>137</ele>
        <time>2021-07-04T14:36:01Z</time>
      </trkpt>
      <trkpt lat="44.29149" lon="4.52812">
        <ele>137</ele>
        <time>2021-07-04T14:36:04Z</time>
      </trkpt>
      <trkpt lat="44.2916" lon="4.52786">
        <ele>136</ele>
        <time>2021-07-04T14:36:09Z</time>
      </trkpt>
      <trkpt lat="44.29198" lon="4.5273">
        <ele>130</ele>
        <time>2021-07-04T14:36:22Z</time>
      </trkpt>
      <trkpt lat="44.29222" lon="4.5271">
        <ele>126</ele>
        <time>2021-07-04T14:36:28Z</time>
      </trkpt>
      <trkpt lat="44.29241" lon="4.52685">
        <ele>124</ele>
        <time>2021-07-04T14:36:34Z</time>
      </trkpt>
      <trkpt lat="44.29254" lon="4.52683">
        <ele>121</ele>
        <time>2021-07-04T14:36:37Z</time>
      </trkpt>
      <trkpt lat="44.29333" lon="4.52682">
        <ele>113</ele>
        <time>2021-07-04T14:36:56Z</time>
      </trkpt>
      <trkpt lat="44.29372" lon="4.52686">
        <ele>111</ele>
        <time>2021-07-04T14:37:05Z</time>
      </trkpt>
      <trkpt lat="44.29385" lon="4.5269">
        <ele>110</ele>
        <time>2021-07-04T14:37:08Z</time>
      </trkpt>
      <trkpt lat="44.29413" lon="4.5269">
        <ele>109</ele>
        <time>2021-07-04T14:37:15Z</time>
      </trkpt>
      <trkpt lat="44.29452" lon="4.52679">
        <ele>109</ele>
        <time>2021-07-04T14:37:24Z</time>
      </trkpt>
      <trkpt lat="44.29535" lon="4.52685">
        <ele>114</ele>
        <time>2021-07-04T14:37:43Z</time>
      </trkpt>
      <trkpt lat="44.29539" lon="4.52653">
        <ele>114</ele>
        <time>2021-07-04T14:37:49Z</time>
      </trkpt>
      <trkpt lat="44.29547" lon="4.52622">
        <ele>115</ele>
        <time>2021-07-04T14:37:54Z</time>
      </trkpt>
      <trkpt lat="44.29541" lon="4.52576">
        <ele>113</ele>
        <time>2021-07-04T14:38:02Z</time>
      </trkpt>
      <trkpt lat="44.29544" lon="4.52541">
        <ele>112</ele>
        <time>2021-07-04T14:38:08Z</time>
      </trkpt>
      <trkpt lat="44.29566" lon="4.52479">
        <ele>110</ele>
        <time>2021-07-04T14:38:19Z</time>
      </trkpt>
      <trkpt lat="44.2957" lon="4.52419">
        <ele>107</ele>
        <time>2021-07-04T14:38:30Z</time>
      </trkpt>
      <trkpt lat="44.29576" lon="4.52409">
        <ele>107</ele>
        <time>2021-07-04T14:38:32Z</time>
      </trkpt>
      <trkpt lat="44.29588" lon="4.52401">
        <ele>107</ele>
        <time>2021-07-04T14:38:35Z</time>
      </trkpt>
      <trkpt lat="44.29578" lon="4.52383">
        <ele>109</ele>
        <time>2021-07-04T14:38:39Z</time>
      </trkpt>
      <trkpt lat="44.29578" lon="4.52351">
        <ele>112</ele>
        <time>2021-07-04T14:38:44Z</time>
      </trkpt>
      <trkpt lat="44.29584" lon="4.52332">
        <ele>113</ele>
        <time>2021-07-04T14:38:47Z</time>
      </trkpt>
      <trkpt lat="44.2958" lon="4.52314">
        <ele>114</ele>
        <time>2021-07-04T14:38:51Z</time>
      </trkpt>
      <trkpt lat="44.29581" lon="4.52291">
        <ele>116</ele>
        <time>2021-07-04T14:38:54Z</time>
      </trkpt>
      <trkpt lat="44.29599" lon="4.52207">
        <ele>119</ele>
        <time>2021-07-04T14:39:09Z</time>
      </trkpt>
      <trkpt lat="44.29676" lon="4.51997">
        <ele>123</ele>
        <time>2021-07-04T14:39:49Z</time>
      </trkpt>
      <trkpt lat="44.29694" lon="4.51934">
        <ele>122</ele>
        <time>2021-07-04T14:40:00Z</time>
      </trkpt>
      <trkpt lat="44.29699" lon="4.51901">
        <ele>121</ele>
        <time>2021-07-04T14:40:06Z</time>
      </trkpt>
      <trkpt lat="44.29729" lon="4.51809">
        <ele>116</ele>
        <time>2021-07-04T14:40:22Z</time>
      </trkpt>
      <trkpt lat="44.29754" lon="4.51705">
        <ele>116</ele>
        <time>2021-07-04T14:40:41Z</time>
      </trkpt>
      <trkpt lat="44.29791" lon="4.5164">
        <ele>122</ele>
        <time>2021-07-04T14:40:55Z</time>
      </trkpt>
      <trkpt lat="44.2979" lon="4.5161">
        <ele>122</ele>
        <time>2021-07-04T14:41:00Z</time>
      </trkpt>
      <trkpt lat="44.29798" lon="4.51547">
        <ele>123</ele>
        <time>2021-07-04T14:41:10Z</time>
      </trkpt>
      <trkpt lat="44.29803" lon="4.5138">
        <ele>127</ele>
        <time>2021-07-04T14:41:38Z</time>
      </trkpt>
      <trkpt lat="44.29798" lon="4.51334">
        <ele>127</ele>
        <time>2021-07-04T14:41:46Z</time>
      </trkpt>
      <trkpt lat="44.29808" lon="4.51325">
        <ele>128</ele>
        <time>2021-07-04T14:41:49Z</time>
      </trkpt>
      <trkpt lat="44.29797" lon="4.51204">
        <ele>130</ele>
        <time>2021-07-04T14:42:09Z</time>
      </trkpt>
      <trkpt lat="44.29788" lon="4.51151">
        <ele>131</ele>
        <time>2021-07-04T14:42:18Z</time>
      </trkpt>
      <trkpt lat="44.29778" lon="4.5105">
        <ele>134</ele>
        <time>2021-07-04T14:42:35Z</time>
      </trkpt>
      <trkpt lat="44.29775" lon="4.51038">
        <ele>134</ele>
        <time>2021-07-04T14:42:37Z</time>
      </trkpt>
      <trkpt lat="44.29776" lon="4.51024">
        <ele>135</ele>
        <time>2021-07-04T14:42:40Z</time>
      </trkpt>
      <trkpt lat="44.29772" lon="4.50981">
        <ele>134</ele>
        <time>2021-07-04T14:42:47Z</time>
      </trkpt>
      <trkpt lat="44.29776" lon="4.50907">
        <ele>132</ele>
        <time>2021-07-04T14:42:59Z</time>
      </trkpt>
      <trkpt lat="44.29787" lon="4.50816">
        <ele>131</ele>
        <time>2021-07-04T14:43:15Z</time>
      </trkpt>
      <trkpt lat="44.29807" lon="4.50602">
        <ele>135</ele>
        <time>2021-07-04T14:43:51Z</time>
      </trkpt>
      <trkpt lat="44.29868" lon="4.50322">
        <ele>139</ele>
        <time>2021-07-04T14:44:40Z</time>
      </trkpt>
      <trkpt lat="44.29888" lon="4.50216">
        <ele>137</ele>
        <time>2021-07-04T14:44:58Z</time>
      </trkpt>
      <trkpt lat="44.29892" lon="4.50173">
        <ele>136</ele>
        <time>2021-07-04T14:45:05Z</time>
      </trkpt>
      <trkpt lat="44.29882" lon="4.50115">
        <ele>136</ele>
        <time>2021-07-04T14:45:15Z</time>
      </trkpt>
      <trkpt lat="44.29841" lon="4.49992">
        <ele>140</ele>
        <time>2021-07-04T14:45:38Z</time>
      </trkpt>
      <trkpt lat="44.29847" lon="4.49983">
        <ele>141</ele>
        <time>2021-07-04T14:45:40Z</time>
      </trkpt>
      <trkpt lat="44.29861" lon="4.49942">
        <ele>143</ele>
        <time>2021-07-04T14:45:48Z</time>
      </trkpt>
      <trkpt lat="44.29948" lon="4.49724">
        <ele>157</ele>
        <time>2021-07-04T14:46:30Z</time>
      </trkpt>
      <trkpt lat="44.29954" lon="4.49687">
        <ele>159</ele>
        <time>2021-07-04T14:46:36Z</time>
      </trkpt>
      <trkpt lat="44.29951" lon="4.4964">
        <ele>161</ele>
        <time>2021-07-04T14:46:44Z</time>
      </trkpt>
      <trkpt lat="44.29958" lon="4.49615">
        <ele>162</ele>
        <time>2021-07-04T14:46:48Z</time>
      </trkpt>
      <trkpt lat="44.29986" lon="4.49571">
        <ele>165</ele>
        <time>2021-07-04T14:46:58Z</time>
      </trkpt>
      <trkpt lat="44.30027" lon="4.49498">
        <ele>168</ele>
        <time>2021-07-04T14:47:14Z</time>
      </trkpt>
      <trkpt lat="44.30035" lon="4.49471">
        <ele>170</ele>
        <time>2021-07-04T14:47:18Z</time>
      </trkpt>
      <trkpt lat="44.30037" lon="4.49448">
        <ele>172</ele>
        <time>2021-07-04T14:47:22Z</time>
      </trkpt>
      <trkpt lat="44.30015" lon="4.49335">
        <ele>177</ele>
        <time>2021-07-04T14:47:42Z</time>
      </trkpt>
      <trkpt lat="44.30009" lon="4.49317">
        <ele>177</ele>
        <time>2021-07-04T14:47:45Z</time>
      </trkpt>
      <trkpt lat="44.29995" lon="4.49303">
        <ele>178</ele>
        <time>2021-07-04T14:47:49Z</time>
      </trkpt>
      <trkpt lat="44.29973" lon="4.49287">
        <ele>180</ele>
        <time>2021-07-04T14:47:55Z</time>
      </trkpt>
      <trkpt lat="44.29954" lon="4.49267">
        <ele>182</ele>
        <time>2021-07-04T14:48:01Z</time>
      </trkpt>
      <trkpt lat="44.29948" lon="4.49254">
        <ele>184</ele>
        <time>2021-07-04T14:48:03Z</time>
      </trkpt>
      <trkpt lat="44.29947" lon="4.4924">
        <ele>185</ele>
        <time>2021-07-04T14:48:06Z</time>
      </trkpt>
      <trkpt lat="44.29898" lon="4.49162">
        <ele>192</ele>
        <time>2021-07-04T14:48:23Z</time>
      </trkpt>
      <trkpt lat="44.29892" lon="4.49149">
        <ele>193</ele>
        <time>2021-07-04T14:48:25Z</time>
      </trkpt>
      <trkpt lat="44.29888" lon="4.49133">
        <ele>194</ele>
        <time>2021-07-04T14:48:28Z</time>
      </trkpt>
      <trkpt lat="44.29884" lon="4.49087">
        <ele>198</ele>
        <time>2021-07-04T14:48:36Z</time>
      </trkpt>
      <trkpt lat="44.29885" lon="4.49059">
        <ele>200</ele>
        <time>2021-07-04T14:48:41Z</time>
      </trkpt>
      <trkpt lat="44.29895" lon="4.49026">
        <ele>204</ele>
        <time>2021-07-04T14:48:47Z</time>
      </trkpt>
      <trkpt lat="44.29969" lon="4.48863">
        <ele>215</ele>
        <time>2021-07-04T14:49:19Z</time>
      </trkpt>
      <trkpt lat="44.2999" lon="4.48789">
        <ele>217</ele>
        <time>2021-07-04T14:49:32Z</time>
      </trkpt>
      <trkpt lat="44.30017" lon="4.48664">
        <ele>228</ele>
        <time>2021-07-04T14:49:54Z</time>
      </trkpt>
      <trkpt lat="44.30027" lon="4.48597">
        <ele>237</ele>
        <time>2021-07-04T14:50:06Z</time>
      </trkpt>
      <trkpt lat="44.30028" lon="4.48555">
        <ele>243</ele>
        <time>2021-07-04T14:50:13Z</time>
      </trkpt>
      <trkpt lat="44.30053" lon="4.48461">
        <ele>251</ele>
        <time>2021-07-04T14:50:29Z</time>
      </trkpt>
      <trkpt lat="44.30052" lon="4.48438">
        <ele>253</ele>
        <time>2021-07-04T14:50:33Z</time>
      </trkpt>
      <trkpt lat="44.30054" lon="4.48431">
        <ele>253</ele>
        <time>2021-07-04T14:50:34Z</time>
      </trkpt>
      <trkpt lat="44.30058" lon="4.48306">
        <ele>254</ele>
        <time>2021-07-04T14:50:55Z</time>
      </trkpt>
      <trkpt lat="44.30024" lon="4.4813">
        <ele>256</ele>
        <time>2021-07-04T14:51:26Z</time>
      </trkpt>
      <trkpt lat="44.30021" lon="4.48095">
        <ele>256</ele>
        <time>2021-07-04T14:51:32Z</time>
      </trkpt>
      <trkpt lat="44.30016" lon="4.48076">
        <ele>256</ele>
        <time>2021-07-04T14:51:35Z</time>
      </trkpt>
      <trkpt lat="44.29994" lon="4.48019">
        <ele>256</ele>
        <time>2021-07-04T14:51:46Z</time>
      </trkpt>
      <trkpt lat="44.2999" lon="4.47998">
        <ele>256</ele>
        <time>2021-07-04T14:51:50Z</time>
      </trkpt>
      <trkpt lat="44.29981" lon="4.47971">
        <ele>256</ele>
        <time>2021-07-04T14:51:55Z</time>
      </trkpt>
      <trkpt lat="44.29969" lon="4.47943">
        <ele>257</ele>
        <time>2021-07-04T14:52:00Z</time>
      </trkpt>
      <trkpt lat="44.29923" lon="4.47738">
        <ele>257</ele>
        <time>2021-07-04T14:52:36Z</time>
      </trkpt>
      <trkpt lat="44.2991" lon="4.47656">
        <ele>259</ele>
        <time>2021-07-04T14:52:50Z</time>
      </trkpt>
      <trkpt lat="44.29944" lon="4.47619">
        <ele>258</ele>
        <time>2021-07-04T14:53:00Z</time>
      </trkpt>
      <trkpt lat="44.29955" lon="4.47587">
        <ele>258</ele>
        <time>2021-07-04T14:53:06Z</time>
      </trkpt>
      <trkpt lat="44.29965" lon="4.4751">
        <ele>259</ele>
        <time>2021-07-04T14:53:19Z</time>
      </trkpt>
      <trkpt lat="44.30013" lon="4.47498">
        <ele>258</ele>
        <time>2021-07-04T14:53:30Z</time>
      </trkpt>
      <trkpt lat="44.30037" lon="4.47481">
        <ele>257</ele>
        <time>2021-07-04T14:53:37Z</time>
      </trkpt>
      <trkpt lat="44.30054" lon="4.47444">
        <ele>256</ele>
        <time>2021-07-04T14:53:44Z</time>
      </trkpt>
      <trkpt lat="44.30087" lon="4.4741">
        <ele>255</ele>
        <time>2021-07-04T14:53:54Z</time>
      </trkpt>
      <trkpt lat="44.30126" lon="4.47415">
        <ele>252</ele>
        <time>2021-07-04T14:54:03Z</time>
      </trkpt>
      <trkpt lat="44.30166" lon="4.47412">
        <ele>249</ele>
        <time>2021-07-04T14:54:12Z</time>
      </trkpt>
      <trkpt lat="44.30191" lon="4.47384">
        <ele>250</ele>
        <time>2021-07-04T14:54:20Z</time>
      </trkpt>
      <trkpt lat="44.30232" lon="4.47345">
        <ele>252</ele>
        <time>2021-07-04T14:54:31Z</time>
      </trkpt>
      <trkpt lat="44.30307" lon="4.47303">
        <ele>251</ele>
        <time>2021-07-04T14:54:50Z</time>
      </trkpt>
      <trkpt lat="44.3032" lon="4.47299">
        <ele>251</ele>
        <time>2021-07-04T14:54:53Z</time>
      </trkpt>
      <trkpt lat="44.30329" lon="4.47293">
        <ele>251</ele>
        <time>2021-07-04T14:54:55Z</time>
      </trkpt>
      <trkpt lat="44.30338" lon="4.47274">
        <ele>251</ele>
        <time>2021-07-04T14:54:59Z</time>
      </trkpt>
      <trkpt lat="44.30343" lon="4.47269">
        <ele>252</ele>
        <time>2021-07-04T14:55:01Z</time>
      </trkpt>
      <trkpt lat="44.3041" lon="4.4728">
        <ele>254</ele>
        <time>2021-07-04T14:55:16Z</time>
      </trkpt>
      <trkpt lat="44.3043" lon="4.47278">
        <ele>255</ele>
        <time>2021-07-04T14:55:21Z</time>
      </trkpt>
      <trkpt lat="44.30457" lon="4.47269">
        <ele>256</ele>
        <time>2021-07-04T14:55:28Z</time>
      </trkpt>
      <trkpt lat="44.3049" lon="4.47267">
        <ele>257</ele>
        <time>2021-07-04T14:55:35Z</time>
      </trkpt>
      <trkpt lat="44.30524" lon="4.47282">
        <ele>258</ele>
        <time>2021-07-04T14:55:44Z</time>
      </trkpt>
      <trkpt lat="44.30547" lon="4.473">
        <ele>258</ele>
        <time>2021-07-04T14:55:50Z</time>
      </trkpt>
      <trkpt lat="44.30562" lon="4.47302">
        <ele>259</ele>
        <time>2021-07-04T14:55:53Z</time>
      </trkpt>
      <trkpt lat="44.30575" lon="4.4729">
        <ele>260</ele>
        <time>2021-07-04T14:55:57Z</time>
      </trkpt>
      <trkpt lat="44.30628" lon="4.47223">
        <ele>266</ele>
        <time>2021-07-04T14:56:14Z</time>
      </trkpt>
      <trkpt lat="44.30634" lon="4.47222">
        <ele>266</ele>
        <time>2021-07-04T14:56:15Z</time>
      </trkpt>
      <trkpt lat="44.30671" lon="4.47232">
        <ele>267</ele>
        <time>2021-07-04T14:56:24Z</time>
      </trkpt>
      <trkpt lat="44.30681" lon="4.47229">
        <ele>268</ele>
        <time>2021-07-04T14:56:26Z</time>
      </trkpt>
      <trkpt lat="44.3069" lon="4.47217">
        <ele>269</ele>
        <time>2021-07-04T14:56:29Z</time>
      </trkpt>
      <trkpt lat="44.30694" lon="4.47215">
        <ele>269</ele>
        <time>2021-07-04T14:56:30Z</time>
      </trkpt>
      <trkpt lat="44.30747" lon="4.47208">
        <ele>270</ele>
        <time>2021-07-04T14:56:43Z</time>
      </trkpt>
      <trkpt lat="44.30761" lon="4.472">
        <ele>271</ele>
        <time>2021-07-04T14:56:46Z</time>
      </trkpt>
      <trkpt lat="44.30802" lon="4.47156">
        <ele>273</ele>
        <time>2021-07-04T14:56:58Z</time>
      </trkpt>
      <trkpt lat="44.30819" lon="4.47107">
        <ele>274</ele>
        <time>2021-07-04T14:57:07Z</time>
      </trkpt>
      <trkpt lat="44.30823" lon="4.47087">
        <ele>275</ele>
        <time>2021-07-04T14:57:11Z</time>
      </trkpt>
      <trkpt lat="44.3084" lon="4.47041">
        <ele>277</ele>
        <time>2021-07-04T14:57:19Z</time>
      </trkpt>
      <trkpt lat="44.30873" lon="4.46975">
        <ele>281</ele>
        <time>2021-07-04T14:57:33Z</time>
      </trkpt>
      <trkpt lat="44.30894" lon="4.46917">
        <ele>283</ele>
        <time>2021-07-04T14:57:44Z</time>
      </trkpt>
      <trkpt lat="44.30895" lon="4.46879">
        <ele>285</ele>
        <time>2021-07-04T14:57:50Z</time>
      </trkpt>
      <trkpt lat="44.30884" lon="4.46863">
        <ele>285</ele>
        <time>2021-07-04T14:57:54Z</time>
      </trkpt>
      <trkpt lat="44.30879" lon="4.4685">
        <ele>286</ele>
        <time>2021-07-04T14:57:56Z</time>
      </trkpt>
      <trkpt lat="44.30878" lon="4.46716">
        <ele>289</ele>
        <time>2021-07-04T14:58:19Z</time>
      </trkpt>
      <trkpt lat="44.30881" lon="4.46697">
        <ele>290</ele>
        <time>2021-07-04T14:58:22Z</time>
      </trkpt>
      <trkpt lat="44.3089" lon="4.46673">
        <ele>292</ele>
        <time>2021-07-04T14:58:26Z</time>
      </trkpt>
      <trkpt lat="44.30915" lon="4.46632">
        <ele>295</ele>
        <time>2021-07-04T14:58:35Z</time>
      </trkpt>
      <trkpt lat="44.30931" lon="4.46597">
        <ele>298</ele>
        <time>2021-07-04T14:58:42Z</time>
      </trkpt>
      <trkpt lat="44.30937" lon="4.4653">
        <ele>297</ele>
        <time>2021-07-04T14:58:54Z</time>
      </trkpt>
      <trkpt lat="44.30946" lon="4.46488">
        <ele>297</ele>
        <time>2021-07-04T14:59:01Z</time>
      </trkpt>
      <trkpt lat="44.30947" lon="4.46449">
        <ele>298</ele>
        <time>2021-07-04T14:59:08Z</time>
      </trkpt>
      <trkpt lat="44.30952" lon="4.46395">
        <ele>299</ele>
        <time>2021-07-04T14:59:17Z</time>
      </trkpt>
      <trkpt lat="44.30957" lon="4.46378">
        <ele>300</ele>
        <time>2021-07-04T14:59:20Z</time>
      </trkpt>
      <trkpt lat="44.30969" lon="4.46357">
        <ele>301</ele>
        <time>2021-07-04T14:59:24Z</time>
      </trkpt>
      <trkpt lat="44.30971" lon="4.46343">
        <ele>302</ele>
        <time>2021-07-04T14:59:27Z</time>
      </trkpt>
      <trkpt lat="44.30967" lon="4.46309">
        <ele>302</ele>
        <time>2021-07-04T14:59:32Z</time>
      </trkpt>
      <trkpt lat="44.30953" lon="4.46285">
        <ele>302</ele>
        <time>2021-07-04T14:59:37Z</time>
      </trkpt>
      <trkpt lat="44.30951" lon="4.46275">
        <ele>302</ele>
        <time>2021-07-04T14:59:39Z</time>
      </trkpt>
      <trkpt lat="44.30951" lon="4.46256">
        <ele>303</ele>
        <time>2021-07-04T14:59:42Z</time>
      </trkpt>
      <trkpt lat="44.30955" lon="4.46233">
        <ele>304</ele>
        <time>2021-07-04T14:59:46Z</time>
      </trkpt>
      <trkpt lat="44.30955" lon="4.46218">
        <ele>304</ele>
        <time>2021-07-04T14:59:49Z</time>
      </trkpt>
      <trkpt lat="44.30952" lon="4.46209">
        <ele>305</ele>
        <time>2021-07-04T14:59:51Z</time>
      </trkpt>
      <trkpt lat="44.30946" lon="4.46202">
        <ele>304</ele>
        <time>2021-07-04T14:59:52Z</time>
      </trkpt>
      <trkpt lat="44.30935" lon="4.46203">
        <ele>304</ele>
        <time>2021-07-04T14:59:55Z</time>
      </trkpt>
      <trkpt lat="44.30917" lon="4.46208">
        <ele>302</ele>
        <time>2021-07-04T14:59:59Z</time>
      </trkpt>
      <trkpt lat="44.30897" lon="4.46225">
        <ele>300</ele>
        <time>2021-07-04T15:00:05Z</time>
      </trkpt>
      <trkpt lat="44.3089" lon="4.46226">
        <ele>300</ele>
        <time>2021-07-04T15:00:06Z</time>
      </trkpt>
      <trkpt lat="44.30882" lon="4.46223">
        <ele>300</ele>
        <time>2021-07-04T15:00:08Z</time>
      </trkpt>
      <trkpt lat="44.3087" lon="4.46215">
        <ele>300</ele>
        <time>2021-07-04T15:00:11Z</time>
      </trkpt>
      <trkpt lat="44.30843" lon="4.46176">
        <ele>300</ele>
        <time>2021-07-04T15:00:20Z</time>
      </trkpt>
      <trkpt lat="44.30836" lon="4.46162">
        <ele>300</ele>
        <time>2021-07-04T15:00:23Z</time>
      </trkpt>
      <trkpt lat="44.30834" lon="4.4615">
        <ele>301</ele>
        <time>2021-07-04T15:00:25Z</time>
      </trkpt>
      <trkpt lat="44.30841" lon="4.46115">
        <ele>302</ele>
        <time>2021-07-04T15:00:31Z</time>
      </trkpt>
      <trkpt lat="44.30842" lon="4.46088">
        <ele>303</ele>
        <time>2021-07-04T15:00:36Z</time>
      </trkpt>
      <trkpt lat="44.30836" lon="4.46005">
        <ele>305</ele>
        <time>2021-07-04T15:00:50Z</time>
      </trkpt>
      <trkpt lat="44.30844" lon="4.45857">
        <ele>307</ele>
        <time>2021-07-04T15:01:15Z</time>
      </trkpt>
      <trkpt lat="44.30836" lon="4.45838">
        <ele>307</ele>
        <time>2021-07-04T15:01:18Z</time>
      </trkpt>
      <trkpt lat="44.30835" lon="4.4583">
        <ele>307</ele>
        <time>2021-07-04T15:01:20Z</time>
      </trkpt>
      <trkpt lat="44.30837" lon="4.45818">
        <ele>307</ele>
        <time>2021-07-04T15:01:22Z</time>
      </trkpt>
      <trkpt lat="44.30844" lon="4.45801">
        <ele>308</ele>
        <time>2021-07-04T15:01:25Z</time>
      </trkpt>
      <trkpt lat="44.30848" lon="4.45777">
        <ele>308</ele>
        <time>2021-07-04T15:01:29Z</time>
      </trkpt>
      <trkpt lat="44.30846" lon="4.45753">
        <ele>308</ele>
        <time>2021-07-04T15:01:33Z</time>
      </trkpt>
      <trkpt lat="44.3086" lon="4.45742">
        <ele>308</ele>
        <time>2021-07-04T15:01:37Z</time>
      </trkpt>
      <trkpt lat="44.30889" lon="4.45729">
        <ele>309</ele>
        <time>2021-07-04T15:01:44Z</time>
      </trkpt>
      <trkpt lat="44.30918" lon="4.45725">
        <ele>309</ele>
        <time>2021-07-04T15:01:51Z</time>
      </trkpt>
      <trkpt lat="44.30951" lon="4.45708">
        <ele>310</ele>
        <time>2021-07-04T15:01:59Z</time>
      </trkpt>
      <trkpt lat="44.3096" lon="4.45677">
        <ele>310</ele>
        <time>2021-07-04T15:02:05Z</time>
      </trkpt>
      <trkpt lat="44.30974" lon="4.45611">
        <ele>310</ele>
        <time>2021-07-04T15:02:16Z</time>
      </trkpt>
      <trkpt lat="44.30968" lon="4.45385">
        <ele>308</ele>
        <time>2021-07-04T15:02:54Z</time>
      </trkpt>
      <trkpt lat="44.3099" lon="4.45334">
        <ele>309</ele>
        <time>2021-07-04T15:03:04Z</time>
      </trkpt>
      <trkpt lat="44.3095" lon="4.45169">
        <ele>301</ele>
        <time>2021-07-04T15:03:33Z</time>
      </trkpt>
      <trkpt lat="44.30932" lon="4.45136">
        <ele>299</ele>
        <time>2021-07-04T15:03:40Z</time>
      </trkpt>
      <trkpt lat="44.30912" lon="4.45089">
        <ele>297</ele>
        <time>2021-07-04T15:03:49Z</time>
      </trkpt>
      <trkpt lat="44.30829" lon="4.44692">
        <ele>284</ele>
        <time>2021-07-04T15:04:58Z</time>
      </trkpt>
      <trkpt lat="44.30816" lon="4.44659">
        <ele>284</ele>
        <time>2021-07-04T15:05:05Z</time>
      </trkpt>
      <trkpt lat="44.30803" lon="4.44595">
        <ele>281</ele>
        <time>2021-07-04T15:05:16Z</time>
      </trkpt>
      <trkpt lat="44.30762" lon="4.44571">
        <ele>282</ele>
        <time>2021-07-04T15:05:26Z</time>
      </trkpt>
      <trkpt lat="44.30717" lon="4.44485">
        <ele>281</ele>
        <time>2021-07-04T15:05:44Z</time>
      </trkpt>
      <trkpt lat="44.30744" lon="4.44461">
        <ele>280</ele>
        <time>2021-07-04T15:05:51Z</time>
      </trkpt>
      <trkpt lat="44.30792" lon="4.44468">
        <ele>276</ele>
        <time>2021-07-04T15:06:03Z</time>
      </trkpt>
      <trkpt lat="44.30851" lon="4.44458">
        <ele>268</ele>
        <time>2021-07-04T15:06:16Z</time>
      </trkpt>
      <trkpt lat="44.30891" lon="4.44471">
        <ele>263</ele>
        <time>2021-07-04T15:06:26Z</time>
      </trkpt>
      <trkpt lat="44.30918" lon="4.44466">
        <ele>259</ele>
        <time>2021-07-04T15:06:32Z</time>
      </trkpt>
      <trkpt lat="44.30944" lon="4.44457">
        <ele>257</ele>
        <time>2021-07-04T15:06:39Z</time>
      </trkpt>
      <trkpt lat="44.30987" lon="4.44456">
        <ele>255</ele>
        <time>2021-07-04T15:06:49Z</time>
      </trkpt>
      <trkpt lat="44.3102" lon="4.44444">
        <ele>257</ele>
        <time>2021-07-04T15:06:57Z</time>
      </trkpt>
      <trkpt lat="44.31015" lon="4.44427">
        <ele>255</ele>
        <time>2021-07-04T15:07:00Z</time>
      </trkpt>
      <trkpt lat="44.30969" lon="4.4443">
        <ele>253</ele>
        <time>2021-07-04T15:07:10Z</time>
      </trkpt>
      <trkpt lat="44.30939" lon="4.44384">
        <ele>253</ele>
        <time>2021-07-04T15:07:21Z</time>
      </trkpt>
      <trkpt lat="44.30903" lon="4.44344">
        <ele>254</ele>
        <time>2021-07-04T15:07:32Z</time>
      </trkpt>
      <trkpt lat="44.30869" lon="4.44249">
        <ele>256</ele>
        <time>2021-07-04T15:07:49Z</time>
      </trkpt>
      <trkpt lat="44.30886" lon="4.44198">
        <ele>253</ele>
        <time>2021-07-04T15:07:59Z</time>
      </trkpt>
      <trkpt lat="44.30901" lon="4.44127">
        <ele>250</ele>
        <time>2021-07-04T15:08:11Z</time>
      </trkpt>
      <trkpt lat="44.30885" lon="4.44044">
        <ele>250</ele>
        <time>2021-07-04T15:08:26Z</time>
      </trkpt>
      <trkpt lat="44.30846" lon="4.43982">
        <ele>247</ele>
        <time>2021-07-04T15:08:39Z</time>
      </trkpt>
      <trkpt lat="44.30804" lon="4.43948">
        <ele>244</ele>
        <time>2021-07-04T15:08:51Z</time>
      </trkpt>
      <trkpt lat="44.30789" lon="4.43909">
        <ele>244</ele>
        <time>2021-07-04T15:08:58Z</time>
      </trkpt>
      <trkpt lat="44.30746" lon="4.43893">
        <ele>245</ele>
        <time>2021-07-04T15:09:08Z</time>
      </trkpt>
      <trkpt lat="44.30711" lon="4.43895">
        <ele>245</ele>
        <time>2021-07-04T15:09:17Z</time>
      </trkpt>
      <trkpt lat="44.30676" lon="4.43854">
        <ele>252</ele>
        <time>2021-07-04T15:09:27Z</time>
      </trkpt>
      <trkpt lat="44.30656" lon="4.43813">
        <ele>259</ele>
        <time>2021-07-04T15:09:36Z</time>
      </trkpt>
      <trkpt lat="44.30662" lon="4.4369">
        <ele>276</ele>
        <time>2021-07-04T15:09:56Z</time>
      </trkpt>
      <trkpt lat="44.30676" lon="4.43628">
        <ele>280</ele>
        <time>2021-07-04T15:10:07Z</time>
      </trkpt>
      <trkpt lat="44.3066" lon="4.43584">
        <ele>282</ele>
        <time>2021-07-04T15:10:15Z</time>
      </trkpt>
      <trkpt lat="44.30668" lon="4.43527">
        <ele>285</ele>
        <time>2021-07-04T15:10:25Z</time>
      </trkpt>
      <trkpt lat="44.30582" lon="4.43445">
        <ele>291</ele>
        <time>2021-07-04T15:10:49Z</time>
      </trkpt>
      <trkpt lat="44.3063" lon="4.43161">
        <ele>284</ele>
        <time>2021-07-04T15:11:38Z</time>
      </trkpt>
      <trkpt lat="44.30648" lon="4.43138">
        <ele>284</ele>
        <time>2021-07-04T15:11:44Z</time>
      </trkpt>
      <trkpt lat="44.30711" lon="4.43115">
        <ele>284</ele>
        <time>2021-07-04T15:11:59Z</time>
      </trkpt>
      <trkpt lat="44.30764" lon="4.43042">
        <ele>282</ele>
        <time>2021-07-04T15:12:16Z</time>
      </trkpt>
      <trkpt lat="44.30823" lon="4.42975">
        <ele>284</ele>
        <time>2021-07-04T15:12:34Z</time>
      </trkpt>
      <trkpt lat="44.3081" lon="4.42941">
        <ele>284</ele>
        <time>2021-07-04T15:12:41Z</time>
      </trkpt>
      <trkpt lat="44.30797" lon="4.42926">
        <ele>284</ele>
        <time>2021-07-04T15:12:45Z</time>
      </trkpt>
      <trkpt lat="44.30734" lon="4.42928">
        <ele>281</ele>
        <time>2021-07-04T15:12:59Z</time>
      </trkpt>
      <trkpt lat="44.30654" lon="4.42901">
        <ele>278</ele>
        <time>2021-07-04T15:13:18Z</time>
      </trkpt>
      <trkpt lat="44.30573" lon="4.42865">
        <ele>281</ele>
        <time>2021-07-04T15:13:38Z</time>
      </trkpt>
      <trkpt lat="44.30573" lon="4.42855">
        <ele>282</ele>
        <time>2021-07-04T15:13:40Z</time>
      </trkpt>
      <trkpt lat="44.30554" lon="4.4283">
        <ele>284</ele>
        <time>2021-07-04T15:13:46Z</time>
      </trkpt>
      <trkpt lat="44.30546" lon="4.42798">
        <ele>285</ele>
        <time>2021-07-04T15:13:52Z</time>
      </trkpt>
      <trkpt lat="44.30544" lon="4.42749">
        <ele>287</ele>
        <time>2021-07-04T15:14:00Z</time>
      </trkpt>
      <trkpt lat="44.30552" lon="4.42702">
        <ele>288</ele>
        <time>2021-07-04T15:14:08Z</time>
      </trkpt>
      <trkpt lat="44.30555" lon="4.42667">
        <ele>289</ele>
        <time>2021-07-04T15:14:14Z</time>
      </trkpt>
      <trkpt lat="44.30531" lon="4.4258">
        <ele>288</ele>
        <time>2021-07-04T15:14:29Z</time>
      </trkpt>
      <trkpt lat="44.30519" lon="4.42551">
        <ele>286</ele>
        <time>2021-07-04T15:14:35Z</time>
      </trkpt>
      <trkpt lat="44.30504" lon="4.42494">
        <ele>284</ele>
        <time>2021-07-04T15:14:45Z</time>
      </trkpt>
      <trkpt lat="44.30498" lon="4.42462">
        <ele>282</ele>
        <time>2021-07-04T15:14:51Z</time>
      </trkpt>
      <trkpt lat="44.30486" lon="4.42454">
        <ele>282</ele>
        <time>2021-07-04T15:14:54Z</time>
      </trkpt>
      <trkpt lat="44.30478" lon="4.42442">
        <ele>281</ele>
        <time>2021-07-04T15:14:57Z</time>
      </trkpt>
      <trkpt lat="44.30469" lon="4.4242">
        <ele>280</ele>
        <time>2021-07-04T15:15:01Z</time>
      </trkpt>
      <trkpt lat="44.3043" lon="4.42354">
        <ele>278</ele>
        <time>2021-07-04T15:15:15Z</time>
      </trkpt>
      <trkpt lat="44.30431" lon="4.42343">
        <ele>277</ele>
        <time>2021-07-04T15:15:17Z</time>
      </trkpt>
      <trkpt lat="44.30442" lon="4.42328">
        <ele>277</ele>
        <time>2021-07-04T15:15:21Z</time>
      </trkpt>
      <trkpt lat="44.30437" lon="4.42306">
        <ele>276</ele>
        <time>2021-07-04T15:15:24Z</time>
      </trkpt>
      <trkpt lat="44.30406" lon="4.42253">
        <ele>274</ele>
        <time>2021-07-04T15:15:36Z</time>
      </trkpt>
      <trkpt lat="44.30375" lon="4.42177">
        <ele>274</ele>
        <time>2021-07-04T15:15:50Z</time>
      </trkpt>
      <trkpt lat="44.30367" lon="4.42168">
        <ele>274</ele>
        <time>2021-07-04T15:15:53Z</time>
      </trkpt>
      <trkpt lat="44.3034" lon="4.42051">
        <ele>268</ele>
        <time>2021-07-04T15:16:13Z</time>
      </trkpt>
      <trkpt lat="44.30323" lon="4.42003">
        <ele>266</ele>
        <time>2021-07-04T15:16:22Z</time>
      </trkpt>
      <trkpt lat="44.303" lon="4.4197">
        <ele>264</ele>
        <time>2021-07-04T15:16:30Z</time>
      </trkpt>
      <trkpt lat="44.30296" lon="4.41954">
        <ele>263</ele>
        <time>2021-07-04T15:16:33Z</time>
      </trkpt>
      <trkpt lat="44.303" lon="4.41897">
        <ele>262</ele>
        <time>2021-07-04T15:16:42Z</time>
      </trkpt>
      <trkpt lat="44.30288" lon="4.41851">
        <ele>263</ele>
        <time>2021-07-04T15:16:51Z</time>
      </trkpt>
      <trkpt lat="44.30265" lon="4.41798">
        <ele>263</ele>
        <time>2021-07-04T15:17:01Z</time>
      </trkpt>
      <trkpt lat="44.30204" lon="4.41634">
        <ele>266</ele>
        <time>2021-07-04T15:17:32Z</time>
      </trkpt>
      <trkpt lat="44.30174" lon="4.41518">
        <ele>266</ele>
        <time>2021-07-04T15:17:53Z</time>
      </trkpt>
      <trkpt lat="44.30222" lon="4.41495">
        <ele>268</ele>
        <time>2021-07-04T15:18:04Z</time>
      </trkpt>
      <trkpt lat="44.30254" lon="4.41485">
        <ele>269</ele>
        <time>2021-07-04T15:18:12Z</time>
      </trkpt>
      <trkpt lat="44.30289" lon="4.41467">
        <ele>269</ele>
        <time>2021-07-04T15:18:21Z</time>
      </trkpt>
      <trkpt lat="44.30308" lon="4.41466">
        <ele>269</ele>
        <time>2021-07-04T15:18:25Z</time>
      </trkpt>
      <trkpt lat="44.30325" lon="4.4148">
        <ele>270</ele>
        <time>2021-07-04T15:18:30Z</time>
      </trkpt>
      <trkpt lat="44.30346" lon="4.41507">
        <ele>272</ele>
        <time>2021-07-04T15:18:36Z</time>
      </trkpt>
      <trkpt lat="44.30374" lon="4.41521">
        <ele>273</ele>
        <time>2021-07-04T15:18:43Z</time>
      </trkpt>
      <trkpt lat="44.30476" lon="4.41594">
        <ele>279</ele>
        <time>2021-07-04T15:19:10Z</time>
      </trkpt>
      <trkpt lat="44.30498" lon="4.4159">
        <ele>279</ele>
        <time>2021-07-04T15:19:15Z</time>
      </trkpt>
      <trkpt lat="44.30534" lon="4.41575">
        <ele>278</ele>
        <time>2021-07-04T15:19:24Z</time>
      </trkpt>
      <trkpt lat="44.30542" lon="4.41567">
        <ele>278</ele>
        <time>2021-07-04T15:19:26Z</time>
      </trkpt>
      <trkpt lat="44.30555" lon="4.41561">
        <ele>278</ele>
        <time>2021-07-04T15:19:30Z</time>
      </trkpt>
      <trkpt lat="44.30578" lon="4.41543">
        <ele>277</ele>
        <time>2021-07-04T15:19:36Z</time>
      </trkpt>
      <trkpt lat="44.30591" lon="4.41537">
        <ele>277</ele>
        <time>2021-07-04T15:19:39Z</time>
      </trkpt>
      <trkpt lat="44.30604" lon="4.41547">
        <ele>278</ele>
        <time>2021-07-04T15:19:42Z</time>
      </trkpt>
      <trkpt lat="44.30627" lon="4.41557">
        <ele>278</ele>
        <time>2021-07-04T15:19:48Z</time>
      </trkpt>
      <trkpt lat="44.30652" lon="4.41553">
        <ele>279</ele>
        <time>2021-07-04T15:19:54Z</time>
      </trkpt>
      <trkpt lat="44.30702" lon="4.41516">
        <ele>278</ele>
        <time>2021-07-04T15:20:07Z</time>
      </trkpt>
      <trkpt lat="44.30717" lon="4.415">
        <ele>277</ele>
        <time>2021-07-04T15:20:12Z</time>
      </trkpt>
      <trkpt lat="44.30755" lon="4.41498">
        <ele>275</ele>
        <time>2021-07-04T15:20:20Z</time>
      </trkpt>
      <trkpt lat="44.30779" lon="4.41501">
        <ele>273</ele>
        <time>2021-07-04T15:20:26Z</time>
      </trkpt>
      <trkpt lat="44.30791" lon="4.41495">
        <ele>272</ele>
        <time>2021-07-04T15:20:29Z</time>
      </trkpt>
      <trkpt lat="44.30815" lon="4.41456">
        <ele>267</ele>
        <time>2021-07-04T15:20:38Z</time>
      </trkpt>
      <trkpt lat="44.30864" lon="4.41447">
        <ele>265</ele>
        <time>2021-07-04T15:20:49Z</time>
      </trkpt>
      <trkpt lat="44.30942" lon="4.41307">
        <ele>270</ele>
        <time>2021-07-04T15:21:19Z</time>
      </trkpt>
      <trkpt lat="44.31065" lon="4.41184">
        <ele>277</ele>
        <time>2021-07-04T15:21:54Z</time>
      </trkpt>
      <trkpt lat="44.3119" lon="4.41171">
        <ele>282</ele>
        <time>2021-07-04T15:22:23Z</time>
      </trkpt>
      <trkpt lat="44.31238" lon="4.41127">
        <ele>284</ele>
        <time>2021-07-04T15:22:37Z</time>
      </trkpt>
      <trkpt lat="44.3128" lon="4.41095">
        <ele>285</ele>
        <time>2021-07-04T15:22:48Z</time>
      </trkpt>
      <trkpt lat="44.31304" lon="4.40983">
        <ele>283</ele>
        <time>2021-07-04T15:23:08Z</time>
      </trkpt>
      <trkpt lat="44.31314" lon="4.40987">
        <ele>282</ele>
        <time>2021-07-04T15:23:10Z</time>
      </trkpt>
      <trkpt lat="44.31325" lon="4.40987">
        <ele>282</ele>
        <time>2021-07-04T15:23:13Z</time>
      </trkpt>
      <trkpt lat="44.31346" lon="4.41043">
        <ele>284</ele>
        <time>2021-07-04T15:23:23Z</time>
      </trkpt>
      <trkpt lat="44.31363" lon="4.41062">
        <ele>285</ele>
        <time>2021-07-04T15:23:28Z</time>
      </trkpt>
      <trkpt lat="44.31395" lon="4.41081">
        <ele>286</ele>
        <time>2021-07-04T15:23:36Z</time>
      </trkpt>
      <trkpt lat="44.31418" lon="4.41085">
        <ele>287</ele>
        <time>2021-07-04T15:23:42Z</time>
      </trkpt>
      <trkpt lat="44.3158" lon="4.4108">
        <ele>292</ele>
        <time>2021-07-04T15:24:20Z</time>
      </trkpt>
      <trkpt lat="44.31639" lon="4.41083">
        <ele>294</ele>
        <time>2021-07-04T15:24:33Z</time>
      </trkpt>
      <trkpt lat="44.31667" lon="4.4109">
        <ele>295</ele>
        <time>2021-07-04T15:24:40Z</time>
      </trkpt>
      <trkpt lat="44.3171" lon="4.41114">
        <ele>297</ele>
        <time>2021-07-04T15:24:51Z</time>
      </trkpt>
      <trkpt lat="44.31744" lon="4.41145">
        <ele>298</ele>
        <time>2021-07-04T15:25:00Z</time>
      </trkpt>
      <trkpt lat="44.31749" lon="4.41127">
        <ele>298</ele>
        <time>2021-07-04T15:25:04Z</time>
      </trkpt>
      <trkpt lat="44.31766" lon="4.41142">
        <ele>300</ele>
        <time>2021-07-04T15:25:08Z</time>
      </trkpt>
      <trkpt lat="44.31787" lon="4.4115">
        <ele>301</ele>
        <time>2021-07-04T15:25:13Z</time>
      </trkpt>
      <trkpt lat="44.31828" lon="4.41144">
        <ele>304</ele>
        <time>2021-07-04T15:25:23Z</time>
      </trkpt>
      <trkpt lat="44.31834" lon="4.41211">
        <ele>303</ele>
        <time>2021-07-04T15:25:34Z</time>
      </trkpt>
    </trkseg>
  </trk>
</gpx>